SQ423 / 9V-SWS 7700 Squawk Report (25th of March, 2019)

Aircraft B77W Reg No. 9V-SWS Age 10 years old
Model 777 Jet engines 2 First flight 20-06-08
Registered 27-06-08 Rollout 03-06-08 Delivered 27-06-08
Construction No. 34584 Line No. 0729 Series 312(ER)
ADSHEX 76CEF3 Airline name Singapore Airlines Owner N/A
Airfield based Changi~ ~9V First tracked 2017-07-13 14:45:00

Flight history for 9V-SWS

Time Lat Lon Altitude Heading Speed Vertical Rate
2019-03-25 23:49:20 GMT 1.270569 103.960457 1,275 22 156 -832
2019-03-25 23:49:16 GMT 1.268188 103.959435 1,300 22 156 -832
2019-03-25 23:49:07 GMT 1.261100 103.956474 1,450 22 156 -768
2019-03-25 23:48:53 GMT 1.252255 103.952728 1,625 22 156 -896
2019-03-25 23:48:41 GMT 1.243790 103.949188 1,800 22 159 -960
2019-03-25 23:48:20 GMT 1.229782 103.943375 2,050 22 156 -128
2019-03-25 23:48:10 GMT 1.223207 103.940659 2,050 22 156 64
2019-03-25 23:48:01 GMT 1.216689 103.937912 2,050 24 160 0
2019-03-25 23:47:43 GMT 1.203461 103.932571 2,075 14 177 -640
2019-03-25 23:47:37 GMT 1.198720 103.931847 2,175 6 178 -704
2019-03-25 23:47:27 GMT 1.190643 103.933083 2,325 347 180 -768
2019-03-25 23:47:06 GMT 1.174187 103.937012 2,600 347 180 -1088
2019-03-25 23:46:43 GMT 1.154775 103.943970 3,125 317 187 -1920
2019-03-25 23:46:35 GMT 1.150085 103.949379 3,375 299 191 -1984
2019-03-25 23:46:13 GMT 1.148490 103.968025 4,225 258 196 -2560
2019-03-25 23:46:02 GMT 1.150681 103.977402 4,625 257 197 -2304
2019-03-25 23:45:48 GMT 1.153518 103.989761 5,125 258 200 -2176
2019-03-25 23:45:40 GMT 1.155240 103.997437 5,375 258 207 -1664
2019-03-25 23:45:28 GMT 1.157801 104.008942 5,700 258 217 -1408
2019-03-25 23:45:19 GMT 1.159927 104.018326 5,900 258 226 -1280
2019-03-25 23:45:02 GMT 1.164001 104.036339 6,225 258 237 -1152
2019-03-25 23:44:57 GMT 1.165146 104.041550 6,325 258 243 -1984
2019-03-25 23:44:34 GMT 1.170364 104.065948 7,350 259 248 -1792
2019-03-25 23:44:19 GMT 1.173861 104.082535 7,425 259 256 -1216
2019-03-25 23:44:11 GMT 1.175956 104.092430 7,600 259 266 -1152
2019-03-25 23:43:51 GMT 1.181259 104.118591 8,100 259 286 -2368
2019-03-25 23:43:38 GMT 1.184708 104.135948 8,600 259 287 -2176
2019-03-25 23:43:34 GMT 1.185779 104.141205 8,725 253 296 -960
2019-03-25 23:43:29 GMT 1.186981 104.146759 8,825 257 292 -1472
2019-03-25 23:43:23 GMT 1.189270 104.155136 8,975 253 296 -960
2019-03-25 23:43:19 GMT 1.191101 104.160309 9,025 248 296 -576
2019-03-25 23:43:08 GMT 1.198380 104.174507 9,075 240 297 64
2019-03-25 23:43:03 GMT 1.200851 104.178741 9,050 240 297 64
2019-03-25 23:42:58 GMT 1.204865 104.185623 9,050 240 296 0
2019-03-25 23:42:55 GMT 1.205982 104.187515 9,050 240 296 64
2019-03-25 23:42:51 GMT 1.210007 104.194382 9,050 240 296 -128
2019-03-25 23:42:46 GMT 1.212919 104.199356 9,050 240 296 -192
2019-03-25 23:42:38 GMT 1.219017 104.209770 9,100 240 297 -576
2019-03-25 23:42:31 GMT 1.223373 104.217148 9,150 240 298 -768
2019-03-25 23:42:25 GMT 1.228001 104.225021 9,275 240 300 -1280
2019-03-25 23:42:09 GMT 1.239441 104.244522 9,625 240 301 -1344
2019-03-25 23:42:02 GMT 1.243698 104.251732 9,750 240 302 -1152
2019-03-25 23:41:28 GMT 1.268143 104.294189 10,100 241 305 0
2019-03-25 23:40:59 GMT 1.288007 104.328773 10,100 241 304 64
2019-03-25 23:40:49 GMT 1.295083 104.340950 10,100 241 304 0
2019-03-25 23:40:39 GMT 1.303436 104.355362 10,100 240 305 0
2019-03-25 23:40:28 GMT 1.310806 104.368073 10,100 240 305 64
2019-03-25 23:40:12 GMT 1.322205 104.387619 10,100 240 305 0
2019-03-25 23:40:02 GMT 1.328751 104.398888 10,100 240 305 0
2019-03-25 23:39:59 GMT 1.331314 104.403313 10,100 240 305 0
2019-03-25 23:39:54 GMT 1.334327 104.408424 10,100 240 305 0
2019-03-25 23:39:43 GMT 1.341449 104.420647 10,100 240 305 0
2019-03-25 23:39:34 GMT 1.348434 104.432587 10,100 240 305 0
2019-03-25 23:39:24 GMT 1.356445 104.446274 10,100 240 305 64
We lost coverage of the aircraft here for a total of 6 minutes
2019-03-25 23:33:16 GMT 1.616154 104.893105 10,100 240 303 0
2019-03-25 23:33:16 GMT 1.616154 104.893105 10,100 240 303 0
2019-03-25 23:30:20 GMT 1.782578 105.071754 10,075 221 304 0
2019-03-25 23:30:10 GMT 1.793793 105.081154 10,075 221 303 0
2019-03-25 23:29:59 GMT 1.805832 105.091354 10,075 221 304 0
2019-03-25 23:29:48 GMT 1.816544 105.100525 10,100 221 303 0
2019-03-25 23:29:11 GMT 1.864138 105.121925 10,100 90 294 0
2019-03-25 23:26:47 GMT 1.911109 104.951538 10,100 90 294 0
2019-03-25 23:23:25 GMT 1.856964 104.713722 10,100 359 296 0
2019-03-25 23:23:03 GMT 1.827455 104.714294 10,100 0 297 0
2019-03-25 23:22:52 GMT 1.812046 104.714531 10,100 0 296 0
2019-03-25 23:22:42 GMT 1.797196 104.714813 10,100 0 296 0
2019-03-25 23:21:47 GMT 1.722748 104.716049 10,100 0 297 64
2019-03-25 23:21:30 GMT 1.698486 104.716324 10,100 0 295 0
2019-03-25 23:21:25 GMT 1.692444 104.716370 10,075 0 296 0
2019-03-25 23:21:15 GMT 1.678441 104.716568 10,100 0 296 64
2019-03-25 23:20:59 GMT 1.657242 104.716835 10,100 0 297 0
2019-03-25 23:20:42 GMT 1.631882 104.717209 10,100 359 296 0
2019-03-25 23:20:29 GMT 1.615906 104.717537 10,100 359 296 0
2019-03-25 23:20:18 GMT 1.601624 104.717674 10,100 16 294 64
2019-03-25 23:20:08 GMT 1.585785 104.716095 10,100 16 294 64
2019-03-25 23:19:58 GMT 1.573105 104.711067 10,075 31 294 0
2019-03-25 23:16:49 GMT 1.404714 104.516968 10,100 49 292 64
2019-03-25 23:16:43 GMT 1.399779 104.511185 10,100 49 291 64
2019-03-25 23:16:33 GMT 1.390655 104.500488 10,100 49 292 0
2019-03-25 23:16:20 GMT 1.379288 104.487053 10,100 49 291 0
2019-03-25 23:16:11 GMT 1.371755 104.478180 10,100 50 291 64
2019-03-25 23:15:59 GMT 1.361847 104.466431 10,100 50 291 64
2019-03-25 23:15:46 GMT 1.350899 104.453461 10,100 49 291 0
2019-03-25 23:15:38 GMT 1.342846 104.443939 10,100 49 291 0
2019-03-25 23:15:28 GMT 1.334141 104.433670 10,100 49 291 64
2019-03-25 23:15:16 GMT 1.323441 104.421089 10,100 49 292 0
2019-03-25 23:15:04 GMT 1.312592 104.408287 10,100 49 292 0
2019-03-25 23:14:47 GMT 1.298621 104.391998 10,100 49 292 0
2019-03-25 23:14:39 GMT 1.291351 104.383522 10,100 49 292 64
2019-03-25 23:14:31 GMT 1.284143 104.375137 10,075 49 290 64
2019-03-25 23:14:21 GMT 1.274918 104.364342 10,100 49 287 -64
2019-03-25 23:13:43 GMT 1.245133 104.329201 10,100 49 259 64
2019-03-25 23:13:16 GMT 1.224884 104.305367 10,100 49 256 0
2019-03-25 23:12:50 GMT 1.204446 104.281235 10,100 49 256 0
2019-03-25 23:12:42 GMT 1.183548 104.256393 10,100 50 255 0
2019-03-25 23:12:22 GMT 1.183548 104.256393 10,100 50 256 0
2019-03-25 23:12:11 GMT 1.158499 104.226631 10,100 50 257 0
2019-03-25 23:11:51 GMT 1.158499 104.226631 10,100 49 257 0
2019-03-25 23:11:35 GMT 1.146469 104.213280 10,100 47 259 64
2019-03-25 23:11:30 GMT 1.141983 104.208862 10,100 42 260 0
2019-03-25 23:11:17 GMT 1.131126 104.199684 10,100 39 260 0
2019-03-25 23:10:57 GMT 1.110923 104.183258 10,100 39 259 64
2019-03-25 23:10:47 GMT 1.101517 104.175484 10,100 40 257 0
2019-03-25 23:10:35 GMT 1.090897 104.166634 10,100 40 257 0
2019-03-25 23:10:18 GMT 1.074565 104.153091 10,100 39 257 0
2019-03-25 23:10:14 GMT 1.071260 104.150345 10,100 39 257 0
2019-03-25 23:10:02 GMT 1.060364 104.141403 10,100 39 257 0
2019-03-25 23:09:51 GMT 1.051437 104.134094 10,100 39 259 0
2019-03-25 23:09:47 GMT 1.045656 104.129410 10,100 39 259 64
2019-03-25 23:09:40 GMT 1.041412 104.125854 10,100 39 259 64
2019-03-25 23:09:37 GMT 1.036765 104.122070 10,100 39 260 0
2019-03-25 23:09:26 GMT 1.027039 104.114037 10,100 39 260 0
2019-03-25 23:09:19 GMT 1.020332 104.108482 10,100 39 260 0
2019-03-25 23:09:09 GMT 1.011200 104.100906 10,100 39 260 64
2019-03-25 23:08:55 GMT 0.999069 104.090942 10,100 39 262 0
2019-03-25 23:08:46 GMT 0.990784 104.084145 10,100 39 261 0
2019-03-25 23:08:36 GMT 0.980483 104.075668 10,100 39 261 64
2019-03-25 23:08:26 GMT 0.970381 104.067284 10,100 39 263 0
2019-03-25 23:08:14 GMT 0.959069 104.057953 10,100 39 262 0
2019-03-25 23:08:03 GMT 0.948669 104.049461 10,100 39 262 0
2019-03-25 23:07:52 GMT 0.939240 104.041786 10,100 39 263 0
2019-03-25 23:07:36 GMT 0.924807 104.029022 10,100 42 262 64
2019-03-25 23:07:31 GMT 0.920105 104.023163 10,100 70 263 0
2019-03-25 23:07:20 GMT 0.914932 104.011154 10,075 77 263 0
2019-03-25 23:07:10 GMT 0.913681 103.999329 10,100 90 264 0
2019-03-25 23:06:41 GMT 0.914062 103.964882 10,100 90 264 64
2019-03-25 23:06:36 GMT 0.914154 103.959526 10,100 90 264 64
2019-03-25 23:06:15 GMT 0.914426 103.932465 10,100 90 263 0
2019-03-25 23:06:04 GMT 0.914565 103.919296 10,100 90 263 0
2019-03-25 23:05:52 GMT 0.914703 103.905945 10,100 90 262 0
2019-03-25 23:05:42 GMT 0.914798 103.893585 10,100 90 264 0
2019-03-25 23:05:33 GMT 0.914891 103.880898 10,100 90 264 0
2019-03-25 23:05:22 GMT 0.915024 103.867447 10,100 90 265 64
2019-03-25 23:05:11 GMT 0.915170 103.853996 10,100 90 265 0
2019-03-25 23:04:59 GMT 0.915264 103.840782 10,100 90 264 0
2019-03-25 23:04:48 GMT 0.915310 103.827148 10,100 90 263 0
2019-03-25 23:04:38 GMT 0.915450 103.814507 10,100 90 264 0
2019-03-25 23:04:28 GMT 0.915589 103.801811 10,100 90 264 64
2019-03-25 23:04:16 GMT 0.915756 103.787468 10,100 90 263 0
2019-03-25 23:03:55 GMT 0.916008 103.762459 10,100 90 263 0
2019-03-25 23:03:44 GMT 0.916168 103.749107 10,100 90 262 0
2019-03-25 23:03:34 GMT 0.916288 103.735329 10,100 90 262 0
2019-03-25 23:03:26 GMT 0.916381 103.725189 10,100 90 261 0
2019-03-25 23:03:12 GMT 0.916567 103.709709 10,100 90 262 0
2019-03-25 23:02:47 GMT 0.916901 103.678955 10,100 90 262 0
2019-03-25 23:02:25 GMT 0.917175 103.652374 10,100 90 260 64
2019-03-25 23:02:18 GMT 0.917313 103.642738 10,100 90 260 0
2019-03-25 23:02:06 GMT 0.917452 103.630005 10,100 90 260 0
2019-03-25 23:01:54 GMT 0.917591 103.615608 10,100 90 259 0
2019-03-25 23:01:45 GMT 0.917679 103.605309 10,100 90 259 0
2019-03-25 23:01:33 GMT 0.917816 103.591393 10,100 90 261 0
2019-03-25 23:01:23 GMT 0.917917 103.579147 10,100 90 261 0
2019-03-25 23:01:11 GMT 0.917999 103.563972 10,100 90 261 0
2019-03-25 23:01:08 GMT 0.918057 103.559875 10,100 90 261 0
2019-03-25 23:01:01 GMT 0.918103 103.551636 10,100 90 261 0
2019-03-25 23:00:55 GMT 0.918137 103.544655 10,100 90 261 64
2019-03-25 23:00:51 GMT 0.918196 103.539604 10,100 90 261 64
2019-03-25 23:00:46 GMT 0.918243 103.532837 10,100 90 261 0
2019-03-25 23:00:39 GMT 0.918289 103.525116 10,100 90 261 0
2019-03-25 23:00:35 GMT 0.918289 103.519859 10,100 90 261 0
2019-03-25 23:00:24 GMT 0.918383 103.505890 10,100 90 261 0
2019-03-25 23:00:16 GMT 0.918429 103.498650 10,100 90 261 64
2019-03-25 23:00:07 GMT 0.918457 103.486366 10,100 90 261 0
2019-03-25 23:00:00 GMT 0.918503 103.477715 10,100 90 261 0
2019-03-25 22:59:49 GMT 0.918549 103.464676 10,100 90 261 0
2019-03-25 22:59:39 GMT 0.918569 103.451904 10,100 90 262 0
2019-03-25 22:59:33 GMT 0.918615 103.446083 10,100 90 263 0
2019-03-25 22:59:28 GMT 0.918615 103.438835 10,100 90 262 64
2019-03-25 22:59:19 GMT 0.918686 103.428413 10,100 90 263 0
2019-03-25 22:59:16 GMT 0.918686 103.425476 10,100 90 263 0
2019-03-25 22:59:13 GMT 0.918708 103.421364 10,100 90 263 0
2019-03-25 22:59:05 GMT 0.918802 103.411179 10,100 90 263 0
2019-03-25 22:58:55 GMT 0.918915 103.398293 10,100 90 263 0
2019-03-25 22:58:48 GMT 0.918988 103.390770 10,100 90 263 64
2019-03-25 22:58:43 GMT 0.919006 103.385162 10,100 90 264 0
2019-03-25 22:58:33 GMT 0.919127 103.372726 10,100 90 265 0
2019-03-25 22:58:21 GMT 0.919267 103.358002 10,100 90 266 0
2019-03-25 22:58:09 GMT 0.919546 103.337311 10,100 90 267 0
2019-03-25 22:58:00 GMT 0.919601 103.331161 10,100 90 267 0
2019-03-25 22:57:47 GMT 0.919830 103.317337 10,100 90 268 0
2019-03-25 22:57:35 GMT 0.919968 103.301933 10,100 90 270 0
2019-03-25 22:57:23 GMT 0.920012 103.287209 10,100 90 270 0
2019-03-25 22:57:15 GMT 0.920105 103.275749 10,100 91 270 0
2019-03-25 22:57:04 GMT 0.921176 103.261826 10,100 100 271 64
2019-03-25 22:56:52 GMT 0.925919 103.248390 10,100 122 272 -64
2019-03-25 22:56:41 GMT 0.934525 103.237923 10,100 149 270 0
2019-03-25 22:56:29 GMT 0.947291 103.230568 10,100 160 269 0
2019-03-25 22:56:19 GMT 0.959023 103.228348 10,100 178 268 0
2019-03-25 22:56:08 GMT 0.972473 103.230286 10,100 200 264 0
2019-03-25 22:55:57 GMT 0.984467 103.236755 10,100 220 263 64
2019-03-25 22:55:45 GMT 0.993896 103.247787 10,100 242 261 0
2019-03-25 22:55:34 GMT 0.999337 103.259933 10,100 249 262 64
2019-03-25 22:55:23 GMT 1.004196 103.272415 10,100 249 263 0
2019-03-25 22:55:14 GMT 1.008321 103.283134 10,100 250 265 64
2019-03-25 22:55:05 GMT 1.012344 103.293457 10,100 250 265 64
2019-03-25 22:55:01 GMT 1.014373 103.298759 10,100 250 267 64
2019-03-25 22:54:51 GMT 1.018707 103.310074 10,100 250 267 64
2019-03-25 22:54:41 GMT 1.022690 103.320686 10,075 250 266 64
2019-03-25 22:54:29 GMT 1.028275 103.335495 10,075 250 268 0
2019-03-25 22:54:12 GMT 1.040024 103.361076 10,125 247 270 -384
2019-03-25 22:54:06 GMT 1.040024 103.361076 10,175 235 271 -640
2019-03-25 22:53:56 GMT 1.048325 103.371529 10,275 230 273 -512
2019-03-25 22:53:44 GMT 1.057571 103.382233 10,375 230 273 -512
2019-03-25 22:53:33 GMT 1.066818 103.393028 10,475 230 274 -512
2019-03-25 22:53:24 GMT 1.073541 103.401001 10,525 230 276 -512
2019-03-25 22:53:21 GMT 1.076340 103.404343 10,575 231 274 -512
2019-03-25 22:53:14 GMT 1.082245 103.411324 10,625 230 275 -448
2019-03-25 22:53:10 GMT 1.085412 103.415016 10,650 229 276 -448
2019-03-25 22:53:03 GMT 1.091583 103.421570 10,700 224 277 -448
2019-03-25 22:53:00 GMT 1.095428 103.425011 10,725 209 281 -512
2019-03-25 22:52:49 GMT 1.106598 103.431580 10,800 199 283 -576
2019-03-25 22:52:41 GMT 1.115707 103.434135 10,875 190 284 -512
2019-03-25 22:52:38 GMT 1.121521 103.434746 10,900 181 288 -512
2019-03-25 22:52:31 GMT 1.129823 103.434288 10,950 169 290 -384
2019-03-25 22:52:26 GMT 1.138000 103.432365 10,975 161 293 -448
2019-03-25 22:52:21 GMT 1.144089 103.429947 11,025 153 296 -448
2019-03-25 22:52:10 GMT 1.156952 103.422318 11,125 146 301 -512
2019-03-25 22:51:59 GMT 1.169678 103.413887 11,200 146 308 -512
2019-03-25 22:51:48 GMT 1.182724 103.405319 11,275 146 315 -704
2019-03-25 22:51:36 GMT 1.196253 103.396408 11,450 146 319 -1344
2019-03-25 22:51:26 GMT 1.209567 103.387596 11,700 146 319 -1536
2019-03-25 22:51:20 GMT 1.217481 103.382385 11,875 146 319 -1536
2019-03-25 22:51:16 GMT 1.222687 103.378929 11,975 146 319 -1600
2019-03-25 22:51:10 GMT 1.228638 103.375015 12,100 146 319 -1536
2019-03-25 22:51:04 GMT 1.236800 103.369606 12,250 146 320 -1536
2019-03-25 22:50:59 GMT 1.242759 103.365669 12,425 146 321 -1472
2019-03-25 22:50:54 GMT 1.249969 103.360954 12,525 146 319 -1536
2019-03-25 22:50:43 GMT 1.262636 103.352654 12,750 146 320 -1472
2019-03-25 22:50:36 GMT 1.272086 103.346451 12,925 146 321 -1536
2019-03-25 22:50:31 GMT 1.276555 103.343513 13,025 146 321 -1664
2019-03-25 22:50:27 GMT 1.282049 103.339912 13,150 146 320 -1856
2019-03-25 22:50:22 GMT 1.289916 103.334656 13,350 146 317 -2560
2019-03-25 22:50:16 GMT 1.295563 103.330887 13,550 146 315 -2176
2019-03-25 22:50:09 GMT 1.304810 103.324738 13,800 146 314 -2368
2019-03-25 22:50:05 GMT 1.308909 103.322014 13,925 146 315 -2432
2019-03-25 22:50:00 GMT 1.316218 103.317131 14,150 146 315 -2496
2019-03-25 22:49:54 GMT 1.322596 103.312965 14,350 146 315 -2560
2019-03-25 22:49:49 GMT 1.329208 103.308586 14,575 146 317 -2432
2019-03-25 22:49:44 GMT 1.334839 103.304825 14,750 146 318 -2304
2019-03-25 22:49:37 GMT 1.342987 103.299461 15,000 146 318 -2304
2019-03-25 22:49:33 GMT 1.347931 103.296204 15,125 146 319 -2176
2019-03-25 22:49:27 GMT 1.356067 103.290802 15,350 146 320 -2112
2019-03-25 22:49:23 GMT 1.361048 103.287537 15,500 146 320 -2112
2019-03-25 22:49:15 GMT 1.369986 103.281570 15,725 146 321 -1984
2019-03-25 22:49:11 GMT 1.375432 103.277969 15,850 146 322 -1728
2019-03-25 22:49:05 GMT 1.383682 103.272507 16,025 146 323 -1408
2019-03-25 22:49:01 GMT 1.387443 103.270020 16,100 146 324 -1472
2019-03-25 22:48:55 GMT 1.396986 103.263672 16,225 146 324 -1472
2019-03-25 22:48:50 GMT 1.401260 103.260826 16,350 146 325 -1408
2019-03-25 22:48:44 GMT 1.410579 103.254669 16,500 146 327 -1152
2019-03-25 22:48:40 GMT 1.414856 103.251839 16,575 146 328 -1088
2019-03-25 22:48:33 GMT 1.424312 103.245674 16,700 146 330 -1088
2019-03-25 22:48:29 GMT 1.428131 103.243134 16,750 146 330 -1472
2019-03-25 22:48:22 GMT 1.438431 103.236382 16,925 146 331 -1536
2019-03-25 22:48:18 GMT 1.442551 103.233681 17,025 146 332 -1536
2019-03-25 22:48:13 GMT 1.451080 103.228058 17,175 146 335 -1536
2019-03-25 22:48:07 GMT 1.456294 103.224602 17,275 146 336 -1536
2019-03-25 22:48:01 GMT 1.466492 103.217949 17,475 146 338 -1536
2019-03-25 22:47:57 GMT 1.470446 103.215370 17,550 146 339 -1536
2019-03-25 22:47:49 GMT 1.481525 103.208168 17,750 146 339 -1600
2019-03-25 22:47:46 GMT 1.484985 103.205940 17,800 146 340 -1600
2019-03-25 22:47:39 GMT 1.494746 103.199554 18,000 146 340 -1600
2019-03-25 22:47:35 GMT 1.499029 103.196754 18,075 146 341 -1600
2019-03-25 22:47:28 GMT 1.509338 103.190018 18,275 146 341 -1600
2019-03-25 22:47:24 GMT 1.514099 103.186897 18,350 146 342 -1600
2019-03-25 22:47:16 GMT 1.523666 103.180664 18,525 146 342 -1600
2019-03-25 22:47:13 GMT 1.528729 103.177345 18,625 146 342 -1600
2019-03-25 22:47:05 GMT 1.538831 103.170761 18,825 146 343 -1600
2019-03-25 22:47:01 GMT 1.543626 103.167587 18,900 146 343 -1600
2019-03-25 22:46:53 GMT 1.555573 103.159668 19,125 145 344 -1664
2019-03-25 22:46:50 GMT 1.559326 103.157196 19,200 145 344 -1664
2019-03-25 22:46:44 GMT 1.568298 103.151146 19,375 145 344 -1664
2019-03-25 22:46:39 GMT 1.573608 103.147560 19,475 145 344 -1664
2019-03-25 22:46:28 GMT 1.588176 103.137711 19,775 145 345 -1664
2019-03-25 22:46:20 GMT 1.597952 103.130463 19,975 139 345 -1600
2019-03-25 22:46:17 GMT 1.602127 103.126938 20,050 137 345 -1600
2019-03-25 22:46:08 GMT 1.612290 103.116776 20,250 129 347 -640
2019-03-25 22:46:05 GMT 1.615270 103.113411 20,300 129 347 -640
2019-03-25 22:45:54 GMT 1.625977 103.098778 20,375 121 353 -448
2019-03-25 22:45:44 GMT 1.634171 103.084068 20,450 117 361 -448
2019-03-25 22:45:32 GMT 1.643201 103.067146 20,550 117 368 -448
2019-03-25 22:45:22 GMT 1.651301 103.051949 20,625 117 376 -448
2019-03-25 22:45:11 GMT 1.660565 103.034569 20,725 117 384 -832
2019-03-25 22:45:00 GMT 1.669830 103.017166 20,925 118 389 -1664
2019-03-25 22:44:49 GMT 1.678813 103.000282 21,250 117 390 -1984
2019-03-25 22:44:39 GMT 1.688031 102.983047 21,575 118 391 -1984
2019-03-25 22:44:32 GMT 1.694176 102.971542 21,800 117 392 -1984
2019-03-25 22:44:28 GMT 1.696922 102.966423 21,900 117 392 -1984
2019-03-25 22:44:23 GMT 1.701874 102.957115 22,075 117 393 -1984
2019-03-25 22:44:18 GMT 1.705767 102.949707 22,225 117 394 -1984
2019-03-25 22:44:07 GMT 1.714828 102.932632 22,550 117 395 -1984
2019-03-25 22:43:59 GMT 1.722748 102.917778 22,825 117 396 -1984
2019-03-25 22:43:56 GMT 1.724121 102.915176 22,875 117 397 -1984
2019-03-25 22:43:46 GMT 1.733652 102.897385 23,225 118 398 -1984
2019-03-25 22:43:35 GMT 1.742569 102.880867 23,550 118 399 -2048
2019-03-25 22:43:24 GMT 1.752226 102.862953 23,900 118 400 -2048
2019-03-25 22:43:14 GMT 1.761520 102.845581 24,225 117 402 -1984
2019-03-25 22:43:03 GMT 1.770754 102.828148 24,575 117 403 -1984
2019-03-25 22:42:56 GMT 1.777830 102.814934 24,850 118 405 -2048
2019-03-25 22:42:52 GMT 1.780472 102.810013 24,900 118 405 -2048
2019-03-25 22:42:44 GMT 1.789142 102.793770 25,225 117 407 -2048
2019-03-25 22:42:41 GMT 1.789887 102.792397 25,250 117 407 -2048
2019-03-25 22:42:31 GMT 1.799477 102.774399 25,600 117 409 -2048
2019-03-25 22:42:24 GMT 1.806599 102.761047 25,850 117 410 -2048
2019-03-25 22:42:20 GMT 1.808741 102.757019 25,925 117 411 -2048
2019-03-25 22:42:13 GMT 1.816086 102.743256 26,200 117 412 -2048
2019-03-25 22:42:09 GMT 1.818424 102.738884 26,275 117 412 -2048
2019-03-25 22:42:02 GMT 1.825790 102.725052 26,550 118 414 -2048
2019-03-25 22:41:59 GMT 1.827781 102.721313 26,625 118 414 -2048
2019-03-25 22:41:51 GMT 1.835220 102.707413 26,875 117 416 -2048
2019-03-25 22:41:48 GMT 1.837556 102.703033 26,950 117 416 -2048
2019-03-25 22:41:41 GMT 1.844819 102.689400 27,225 117 417 -2048
2019-03-25 22:41:37 GMT 1.848077 102.683243 27,325 117 418 -2048
2019-03-25 22:41:30 GMT 1.854641 102.670929 27,575 117 420 -2112
2019-03-25 22:41:27 GMT 1.857056 102.666489 27,650 117 420 -2112
2019-03-25 22:41:20 GMT 1.864380 102.652756 27,925 118 421 -2112
2019-03-25 22:41:16 GMT 1.866943 102.647964 28,000 118 422 -2112
2019-03-25 22:41:08 GMT 1.874147 102.634514 28,275 118 423 -2112
2019-03-25 22:41:05 GMT 1.877289 102.628647 28,375 118 424 -2112
2019-03-25 22:40:58 GMT 1.884338 102.615517 28,625 118 425 -2112
2019-03-25 22:40:54 GMT 1.887360 102.609978 28,725 118 425 -2112
2019-03-25 22:40:47 GMT 1.895374 102.595070 29,025 118 427 -2112
2019-03-25 22:40:44 GMT 1.897064 102.591911 29,075 118 427 -2112
2019-03-25 22:40:36 GMT 1.904205 102.578644 29,425 117 430 -2176
2019-03-25 22:40:32 GMT 1.908325 102.570969 29,475 117 430 -2176
2019-03-25 22:40:25 GMT 1.914880 102.558655 29,700 117 431 -2176
2019-03-25 22:40:21 GMT 1.918076 102.552673 29,825 117 432 -2176
2019-03-25 22:40:16 GMT 1.924330 102.541039 30,050 118 433 -2176
2019-03-25 22:40:10 GMT 1.928473 102.533272 30,200 118 434 -2176
2019-03-25 22:40:02 GMT 1.936661 102.518036 30,500 118 435 -2176
2019-03-25 22:39:59 GMT 1.939362 102.513054 30,600 118 436 -2176
2019-03-25 22:39:53 GMT 1.945084 102.502396 30,800 117 437 -2240
2019-03-25 22:39:48 GMT 1.949468 102.494156 30,950 118 438 -2176
2019-03-25 22:39:44 GMT 1.954605 102.484520 31,150 118 439 -2176
2019-03-25 22:39:38 GMT 1.959595 102.475159 31,325 118 441 -2240
2019-03-25 22:39:33 GMT 1.964630 102.465851 31,500 118 442 -2240
2019-03-25 22:39:27 GMT 1.970230 102.455421 31,700 117 442 -2176
2019-03-25 22:39:22 GMT 1.975211 102.445992 31,875 117 443 -2176
2019-03-25 22:39:16 GMT 1.980565 102.435860 32,075 117 443 -2240
2019-03-25 22:39:12 GMT 1.985546 102.426392 32,250 117 445 -2176
2019-03-25 22:39:04 GMT 1.991691 102.414742 32,475 117 446 -2240
2019-03-25 22:39:00 GMT 1.995555 102.407448 32,625 117 446 -2240
2019-03-25 22:38:54 GMT 2.001374 102.396507 32,825 117 447 -2240
2019-03-25 22:38:50 GMT 2.005829 102.388062 33,000 117 448 -2240
2019-03-25 22:38:44 GMT 2.011476 102.377426 33,200 117 449 -2304
2019-03-25 22:38:39 GMT 2.017502 102.366043 33,425 117 450 -2304
2019-03-25 22:38:33 GMT 2.022171 102.357155 33,600 117 451 -2304
2019-03-25 22:38:29 GMT 2.027071 102.347923 33,775 117 453 -2304
2019-03-25 22:38:21 GMT 2.034100 102.334618 34,050 117 454 -2304
2019-03-25 22:38:18 GMT 2.037048 102.329033 34,150 117 454 -2240
2019-03-25 22:38:11 GMT 2.043320 102.317116 34,375 117 456 -1920
2019-03-25 22:38:08 GMT 2.047833 102.308571 34,525 117 457 -1792
2019-03-25 22:38:01 GMT 2.053574 102.297707 34,675 117 459 -1408
2019-03-25 22:37:56 GMT 2.058121 102.289062 34,800 117 460 -1152
2019-03-25 22:37:50 GMT 2.064080 102.277786 34,900 117 460 -704
2019-03-25 22:37:45 GMT 2.069000 102.268333 34,975 117 461 -320
2019-03-25 22:37:39 GMT 2.074951 102.257019 35,000 117 461 0
2019-03-25 22:37:36 GMT 2.079535 102.248337 35,000 117 461 0
2019-03-25 22:37:29 GMT 2.085297 102.237419 35,000 117 460 0
2019-03-25 22:37:24 GMT 2.090012 102.228340 35,000 117 460 0
2019-03-25 22:37:18 GMT 2.095782 102.217415 35,000 117 460 0
2019-03-25 22:37:13 GMT 2.101135 102.207253 35,000 117 460 0
2019-03-25 22:37:07 GMT 2.106674 102.196732 35,000 117 459 0
2019-03-25 22:37:04 GMT 2.110865 102.188812 35,000 117 460 0
2019-03-25 22:36:57 GMT 2.117242 102.176781 35,000 117 460 0
2019-03-25 22:36:52 GMT 2.122037 102.167786 35,000 117 459 0
2019-03-25 22:36:46 GMT 2.127869 102.156929 35,000 117 459 64
2019-03-25 22:36:42 GMT 2.132629 102.147903 35,000 117 459 0
2019-03-25 22:36:36 GMT 2.138168 102.137383 35,000 117 458 0
2019-03-25 22:36:32 GMT 2.142929 102.128349 35,000 118 459 64
2019-03-25 22:36:25 GMT 2.149109 102.117271 35,000 120 458 0
2019-03-25 22:36:20 GMT 2.154158 102.108925 35,000 122 457 0
2019-03-25 22:36:14 GMT 2.161607 102.097603 35,000 124 457 0
2019-03-25 22:36:10 GMT 2.166495 102.090691 35,000 126 457 0
2019-03-25 22:36:03 GMT 2.174688 102.079895 35,000 128 457 0
2019-03-25 22:35:59 GMT 2.182229 102.070755 35,000 130 457 0
2019-03-25 22:35:53 GMT 2.189255 102.062851 35,000 132 457 0
2019-03-25 22:35:48 GMT 2.195962 102.055794 35,000 134 458 0
2019-03-25 22:35:41 GMT 2.206604 102.045441 35,000 136 459 0
2019-03-25 22:35:36 GMT 2.214615 102.037804 35,000 136 459 0
2019-03-25 22:35:28 GMT 2.229107 102.024063 35,000 136 459 64
2019-03-25 22:35:21 GMT 2.237411 102.016159 35,000 136 459 0
2019-03-25 22:35:16 GMT 2.246017 102.007965 35,000 136 459 0
2019-03-25 22:35:10 GMT 2.254028 102.000328 35,000 136 459 64
2019-03-25 22:35:06 GMT 2.261444 101.993301 35,000 136 459 0
2019-03-25 22:35:00 GMT 2.270399 101.984802 35,000 136 459 0
2019-03-25 22:34:56 GMT 2.277801 101.977798 35,000 136 459 0
2019-03-25 22:34:49 GMT 2.286758 101.969276 35,000 136 459 0
2019-03-25 22:34:44 GMT 2.294467 101.961929 35,000 136 459 0
2019-03-25 22:34:38 GMT 2.303421 101.953453 35,000 136 459 0
2019-03-25 22:34:33 GMT 2.312027 101.945259 35,000 136 459 0
2019-03-25 22:34:27 GMT 2.320350 101.937309 35,000 136 459 64
2019-03-25 22:34:24 GMT 2.327752 101.930298 35,000 136 459 0
2019-03-25 22:34:17 GMT 2.336060 101.922401 35,000 136 459 0
2019-03-25 22:34:13 GMT 2.343160 101.915665 35,000 136 459 0
2019-03-25 22:34:06 GMT 2.352722 101.906570 35,000 136 459 0
2019-03-25 22:34:01 GMT 2.361083 101.898666 35,000 136 459 0
2019-03-25 22:33:56 GMT 2.368485 101.891655 35,000 136 459 0
2019-03-25 22:33:52 GMT 2.376801 101.883759 35,000 136 459 0
2019-03-25 22:33:45 GMT 2.385406 101.875572 35,000 136 459 64
2019-03-25 22:33:40 GMT 2.393111 101.868217 35,000 136 459 0
2019-03-25 22:33:35 GMT 2.401428 101.860344 35,000 136 459 0
2019-03-25 22:33:30 GMT 2.409730 101.852448 35,000 136 458 0
2019-03-25 22:33:24 GMT 2.418045 101.844521 35,000 136 459 64
2019-03-25 22:33:20 GMT 2.426056 101.836884 35,000 136 459 0
2019-03-25 22:33:14 GMT 2.433751 101.829575 35,000 136 459 0
2019-03-25 22:33:08 GMT 2.442363 101.821381 35,000 136 459 0
2019-03-25 22:33:03 GMT 2.450370 101.813759 35,000 136 459 64
2019-03-25 22:32:57 GMT 2.459029 101.805519 35,000 136 459 0
2019-03-25 22:32:52 GMT 2.466705 101.798203 35,000 136 459 0
2019-03-25 22:32:47 GMT 2.477188 101.788239 35,000 136 459 0
2019-03-25 22:32:42 GMT 2.483368 101.782417 35,000 136 459 0
2019-03-25 22:32:36 GMT 2.492020 101.774178 35,000 136 459 64
2019-03-25 22:32:31 GMT 2.499110 101.767448 35,000 136 459 0
2019-03-25 22:32:26 GMT 2.508328 101.758682 35,000 136 459 0
2019-03-25 22:32:21 GMT 2.515729 101.751633 35,000 136 459 0
2019-03-25 22:32:16 GMT 2.524658 101.743172 35,000 136 459 0
2019-03-25 22:32:10 GMT 2.532669 101.735542 35,000 136 459 -64
2019-03-25 22:32:05 GMT 2.541916 101.726791 35,000 136 459 0
2019-03-25 22:31:59 GMT 2.549014 101.720047 35,000 136 459 0
2019-03-25 22:31:53 GMT 2.559489 101.710098 35,000 136 459 0
2019-03-25 22:31:49 GMT 2.565028 101.704796 35,000 136 459 64
2019-03-25 22:31:42 GMT 2.575503 101.694855 35,000 136 459 64
2019-03-25 22:31:38 GMT 2.581647 101.688980 35,000 136 459 0
2019-03-25 22:31:32 GMT 2.591812 101.679352 35,000 136 459 0
2019-03-25 22:31:27 GMT 2.597992 101.673485 35,000 136 459 0
2019-03-25 22:31:20 GMT 2.609711 101.662361 35,000 136 459 0
2019-03-25 22:31:16 GMT 2.614932 101.657349 35,000 136 459 0
2019-03-25 22:31:10 GMT 2.624801 101.647972 35,000 136 459 0
2019-03-25 22:31:06 GMT 2.630946 101.642097 35,000 136 459 0
2019-03-25 22:31:01 GMT 2.640210 101.633339 35,000 136 459 0
2019-03-25 22:30:55 GMT 2.647612 101.626282 35,000 136 459 0
2019-03-25 22:30:47 GMT 2.664231 101.610466 35,000 136 459 0
2019-03-25 22:30:39 GMT 2.673495 101.601654 35,000 136 459 64
2019-03-25 22:30:34 GMT 2.680573 101.594910 35,000 136 459 0
2019-03-25 22:30:29 GMT 2.688904 101.586975 35,000 136 459 0
2019-03-25 22:30:26 GMT 2.693233 101.582909 35,000 136 459 0
2019-03-25 22:30:17 GMT 2.705841 101.570839 35,000 136 459 0
2019-03-25 22:30:12 GMT 2.713530 101.563538 35,000 136 459 0
2019-03-25 22:30:04 GMT 2.727123 101.550659 35,000 136 458 0
2019-03-25 22:30:01 GMT 2.730196 101.547722 35,000 136 458 64
2019-03-25 22:29:54 GMT 2.744019 101.534531 35,000 136 459 0
2019-03-25 22:29:51 GMT 2.746210 101.532471 35,000 136 459 0
2019-03-25 22:29:46 GMT 2.755142 101.524010 35,000 136 459 0
2019-03-25 22:29:40 GMT 2.763153 101.516373 35,000 136 459 0
2019-03-25 22:29:34 GMT 2.772400 101.507622 35,000 136 459 0
2019-03-25 22:29:29 GMT 2.779770 101.500587 35,000 136 458 0
2019-03-25 22:29:25 GMT 2.791179 101.489761 35,000 136 458 0
2019-03-25 22:29:19 GMT 2.795792 101.485367 35,000 136 458 64
2019-03-25 22:29:13 GMT 2.805284 101.476311 35,000 136 458 -64
2019-03-25 22:29:08 GMT 2.812034 101.469872 35,000 136 458 -64
2019-03-25 22:29:03 GMT 2.820693 101.461678 35,000 136 458 0
2019-03-25 22:28:57 GMT 2.828654 101.454056 35,000 136 458 0
2019-03-25 22:28:53 GMT 2.836990 101.446121 35,000 136 458 0
2019-03-25 22:28:47 GMT 2.845001 101.438538 35,000 136 458 64
2019-03-25 22:28:42 GMT 2.853280 101.430611 35,000 136 458 0
2019-03-25 22:28:35 GMT 2.863754 101.420670 35,000 136 458 0
2019-03-25 22:28:31 GMT 2.870819 101.413956 35,000 136 458 0
2019-03-25 22:28:28 GMT 2.873577 101.411339 35,000 136 458 0
2019-03-25 22:28:24 GMT 2.880661 101.404602 35,000 136 457 0
2019-03-25 22:28:20 GMT 2.887123 101.398460 35,000 136 458 0
2019-03-25 22:28:14 GMT 2.895084 101.390884 35,000 136 458 0
2019-03-25 22:28:08 GMT 2.904301 101.382072 35,000 136 458 64
2019-03-25 22:28:03 GMT 2.911972 101.374763 35,000 136 458 0
2019-03-25 22:27:56 GMT 2.922455 101.364845 35,000 136 458 0
2019-03-25 22:27:53 GMT 2.927670 101.359863 35,000 136 458 64
2019-03-25 22:27:47 GMT 2.937195 101.350784 35,000 136 458 0
2019-03-25 22:27:42 GMT 2.944895 101.343430 35,000 136 459 0
2019-03-25 22:27:37 GMT 2.952296 101.336426 35,000 136 459 0
2019-03-25 22:27:31 GMT 2.961227 101.327927 35,000 136 459 0
2019-03-25 22:27:26 GMT 2.969238 101.320297 35,000 136 459 0
2019-03-25 22:27:20 GMT 2.978133 101.311844 35,000 136 458 0
2019-03-25 22:27:16 GMT 2.986450 101.303909 35,000 136 458 0
2019-03-25 22:27:10 GMT 2.994461 101.296318 35,000 136 458 0
2019-03-25 22:27:06 GMT 3.002154 101.288971 35,000 136 458 0
2019-03-25 22:26:59 GMT 3.010437 101.281097 35,000 136 457 0
2019-03-25 22:26:54 GMT 3.019043 101.272903 35,000 136 457 0
2019-03-25 22:26:48 GMT 3.027292 101.265015 35,000 136 456 0
2019-03-25 22:26:45 GMT 3.034042 101.258568 35,000 136 456 0
2019-03-25 22:26:38 GMT 3.042938 101.250137 35,000 136 456 64
2019-03-25 22:26:33 GMT 3.050903 101.242554 35,000 136 456 0
2019-03-25 22:26:26 GMT 3.061648 101.232338 35,000 136 456 0
2019-03-25 22:26:22 GMT 3.068069 101.226166 35,000 136 456 0
2019-03-25 22:26:16 GMT 3.077271 101.217415 35,000 136 456 0
2019-03-25 22:26:11 GMT 3.085876 101.209267 35,000 136 456 0
2019-03-25 22:26:04 GMT 3.095398 101.200233 35,000 136 456 0
2019-03-25 22:26:01 GMT 3.099380 101.196419 35,000 136 456 0
2019-03-25 22:25:54 GMT 3.110108 101.186211 35,000 136 456 64
2019-03-25 22:25:51 GMT 3.115906 101.180687 35,000 136 456 0
2019-03-25 22:25:44 GMT 3.126635 101.170494 35,000 136 456 0
2019-03-25 22:25:39 GMT 3.136139 101.161461 35,000 136 456 0
2019-03-25 22:25:33 GMT 3.142868 101.155029 35,000 136 456 64
2019-03-25 22:25:29 GMT 3.159393 101.139252 35,000 136 456 0
2019-03-25 22:25:22 GMT 3.159393 101.139252 35,000 136 456 0
2019-03-25 22:25:19 GMT 3.166718 101.132271 35,000 136 456 0
2019-03-25 22:25:11 GMT 3.175607 101.123802 35,000 136 456 0
2019-03-25 22:25:08 GMT 3.180222 101.119423 35,000 136 456 0
2019-03-25 22:24:58 GMT 3.197021 101.103439 35,000 136 454 0
2019-03-25 22:24:50 GMT 3.208328 101.092651 35,000 136 455 0
2019-03-25 22:24:47 GMT 3.215363 101.085960 35,000 136 454 0
2019-03-25 22:24:39 GMT 3.224808 101.076920 35,000 136 455 0
2019-03-25 22:24:36 GMT 3.229980 101.071991 35,000 136 455 0
2019-03-25 22:24:29 GMT 3.240362 101.062141 35,000 136 454 0
2019-03-25 22:24:26 GMT 3.262665 101.040886 35,000 136 454 0
2019-03-25 22:24:16 GMT 3.262665 101.040886 35,000 136 454 0
2019-03-25 22:24:07 GMT 3.274246 101.029854 35,000 136 454 0
2019-03-25 22:24:04 GMT 3.279739 101.024643 35,000 136 454 0
2019-03-25 22:23:57 GMT 3.289195 101.015640 35,000 136 454 0
2019-03-25 22:23:54 GMT 3.294688 101.010384 35,000 136 454 0
2019-03-25 22:23:51 GMT 3.301392 101.003990 35,000 136 454 0
2019-03-25 22:23:44 GMT 3.311462 100.994431 35,000 136 454 0
2019-03-25 22:23:35 GMT 3.328857 100.977852 35,000 136 454 0
2019-03-25 22:23:31 GMT 3.328857 100.977852 35,000 136 455 0
2019-03-25 22:23:25 GMT 3.343475 100.963928 35,000 136 455 0
2019-03-25 22:23:22 GMT 3.343475 100.963928 35,000 136 455 0
2019-03-25 22:23:11 GMT 3.361816 100.946457 35,000 136 454 64
2019-03-25 22:23:04 GMT 3.370941 100.937744 35,000 136 454 0
2019-03-25 22:23:01 GMT 3.376740 100.932236 35,000 136 454 0
2019-03-25 22:22:53 GMT 3.386490 100.922920 35,000 136 454 0
2019-03-25 22:22:48 GMT 3.395334 100.914536 35,000 136 455 0
2019-03-25 22:22:41 GMT 3.404505 100.905777 35,000 136 454 0
2019-03-25 22:22:37 GMT 3.411814 100.898819 35,000 136 454 0
2019-03-25 22:22:31 GMT 3.419727 100.891243 35,000 136 454 0
2019-03-25 22:22:27 GMT 3.428293 100.883095 35,000 136 455 0
2019-03-25 22:22:21 GMT 3.435928 100.875816 35,000 136 455 0
2019-03-25 22:22:16 GMT 3.446320 100.865944 35,000 136 455 0
2019-03-25 22:22:10 GMT 3.451813 100.860687 35,000 136 455 0
2019-03-25 22:22:07 GMT 3.457901 100.854866 35,000 136 455 0
2019-03-25 22:22:04 GMT 3.462509 100.850517 35,000 136 455 0
2019-03-25 22:22:00 GMT 3.468607 100.844688 35,000 136 455 0
2019-03-25 22:21:57 GMT 3.473785 100.839737 35,000 136 455 0
2019-03-25 22:21:53 GMT 3.478683 100.835083 35,000 136 455 0
2019-03-25 22:21:49 GMT 3.484482 100.829536 35,000 136 455 0
2019-03-25 22:21:46 GMT 3.489670 100.824608 35,000 136 455 0
2019-03-25 22:21:43 GMT 3.495468 100.819069 35,000 136 455 0
2019-03-25 22:21:38 GMT 3.500961 100.813866 35,000 136 455 64
2019-03-25 22:21:33 GMT 3.511342 100.803917 35,000 136 455 0
2019-03-25 22:21:28 GMT 3.516541 100.799004 35,000 136 455 0
2019-03-25 22:21:25 GMT 3.528763 100.787315 35,000 136 455 0
2019-03-25 22:21:17 GMT 3.533661 100.782661 35,000 136 455 0
2019-03-25 22:21:13 GMT 3.539795 100.776840 35,000 136 456 0
2019-03-25 22:21:10 GMT 3.544394 100.772476 35,000 136 456 0
2019-03-25 22:21:06 GMT 3.550186 100.766930 35,000 136 456 0
2019-03-25 22:21:03 GMT 3.555679 100.761665 35,000 136 456 0
2019-03-25 22:21:00 GMT 3.561813 100.755852 35,000 136 456 0
2019-03-25 22:20:57 GMT 3.564598 100.753197 35,000 136 456 0
2019-03-25 22:20:53 GMT 3.571907 100.746193 35,000 136 456 0
2019-03-25 22:20:49 GMT 3.576508 100.741837 35,000 136 456 0
2019-03-25 22:20:46 GMT 3.581406 100.737137 35,000 136 456 0
2019-03-25 22:20:41 GMT 3.593972 100.725166 35,000 136 456 0
2019-03-25 22:20:35 GMT 3.605005 100.714653 35,000 136 456 0
2019-03-25 22:20:30 GMT 3.605005 100.714653 35,000 136 456 0
2019-03-25 22:20:24 GMT 3.614781 100.705322 35,000 136 456 0
2019-03-25 22:20:21 GMT 3.620926 100.699455 35,000 136 456 0
2019-03-25 22:20:18 GMT 3.627025 100.693626 35,000 136 456 0
2019-03-25 22:20:14 GMT 3.630386 100.690399 35,000 136 456 0
2019-03-25 22:20:09 GMT 3.638663 100.682549 35,000 136 456 0
2019-03-25 22:20:05 GMT 3.644156 100.677292 35,000 136 456 0
2019-03-25 22:19:59 GMT 3.653373 100.668533 35,000 136 456 0
2019-03-25 22:19:55 GMT 3.659180 100.662979 35,000 136 456 0
2019-03-25 22:19:52 GMT 3.664078 100.658272 35,000 136 456 0
2019-03-25 22:19:48 GMT 3.670212 100.652458 35,000 136 456 0
2019-03-25 22:19:44 GMT 3.676346 100.646637 35,000 136 456 0
2019-03-25 22:19:41 GMT 3.680932 100.642250 35,000 136 456 0
2019-03-25 22:19:37 GMT 3.687973 100.635513 35,000 136 455 0
2019-03-25 22:19:31 GMT 3.696201 100.627663 35,000 136 455 0
2019-03-25 22:19:26 GMT 3.702951 100.621223 35,000 136 455 0
2019-03-25 22:19:20 GMT 3.712463 100.612190 35,000 136 455 0
2019-03-25 22:19:15 GMT 3.720082 100.604935 35,000 136 455 0
2019-03-25 22:19:11 GMT 3.725876 100.599388 35,000 136 456 0
2019-03-25 22:19:08 GMT 3.730774 100.594734 35,000 136 456 0
2019-03-25 22:19:04 GMT 3.736908 100.588867 35,000 136 456 0
2019-03-25 22:19:01 GMT 3.741165 100.584770 35,000 136 456 0
2019-03-25 22:18:55 GMT 3.752483 100.574013 35,000 136 456 0
2019-03-25 22:18:51 GMT 3.759186 100.567566 35,000 136 456 0
2019-03-25 22:18:44 GMT 3.768962 100.558243 35,000 136 456 0
2019-03-25 22:18:38 GMT 3.777237 100.550369 35,000 136 456 0
2019-03-25 22:18:32 GMT 3.785156 100.542778 35,000 136 456 0
2019-03-25 22:18:28 GMT 3.791885 100.536354 35,000 136 456 0
2019-03-25 22:18:23 GMT 3.805040 100.523811 35,000 136 455 0
2019-03-25 22:18:12 GMT 3.817889 100.511551 35,000 136 455 0
2019-03-25 22:18:09 GMT 3.834091 100.496086 35,000 136 455 0
2019-03-25 22:18:01 GMT 3.834091 100.496086 35,000 136 455 0
2019-03-25 22:17:58 GMT 3.840513 100.490005 35,000 136 455 0
2019-03-25 22:17:50 GMT 3.850616 100.480354 35,000 136 456 0
2019-03-25 22:17:46 GMT 3.856705 100.474533 35,000 136 456 0
2019-03-25 22:17:39 GMT 3.868332 100.463455 35,000 136 456 0
2019-03-25 22:17:35 GMT 3.872913 100.459076 35,000 136 456 0
2019-03-25 22:17:29 GMT 3.883946 100.448563 35,000 136 456 0
2019-03-25 22:17:24 GMT 3.890696 100.442123 35,000 136 456 0
2019-03-25 22:17:18 GMT 3.907562 100.426025 35,000 136 457 0
2019-03-25 22:17:14 GMT 3.907562 100.426025 35,000 136 457 0
2019-03-25 22:17:08 GMT 3.916763 100.417229 35,000 136 458 0
2019-03-25 22:17:05 GMT 3.934921 100.399933 35,000 136 458 0
2019-03-25 22:16:55 GMT 3.934921 100.399933 35,000 136 458 0
2019-03-25 22:16:45 GMT 3.949026 100.386436 35,000 136 458 0
2019-03-25 22:16:42 GMT 3.953961 100.381752 35,000 136 458 0
2019-03-25 22:16:34 GMT 3.966297 100.370003 35,000 136 458 0
2019-03-25 22:16:31 GMT 3.970871 100.365601 35,000 136 458 0
2019-03-25 22:16:25 GMT 3.981995 100.355034 35,000 136 459 0
2019-03-25 22:16:12 GMT 4.000141 100.337662 35,000 136 459 0
2019-03-25 22:16:05 GMT 4.011520 100.326775 35,000 136 460 0
2019-03-25 22:16:02 GMT 4.016155 100.322365 35,000 136 460 0
2019-03-25 22:15:53 GMT 4.031563 100.307640 35,000 136 461 0
2019-03-25 22:15:49 GMT 4.039307 100.300240 35,000 136 462 0
2019-03-25 22:15:41 GMT 4.048276 100.291679 35,000 136 461 0
2019-03-25 22:15:30 GMT 4.065308 100.275429 35,000 136 461 0
2019-03-25 22:15:20 GMT 4.080443 100.260948 35,000 136 462 0
2019-03-25 22:15:10 GMT 4.097807 100.244370 35,000 136 462 0
2019-03-25 22:14:58 GMT 4.114838 100.228043 35,000 136 462 0
2019-03-25 22:14:49 GMT 4.130673 100.212975 35,000 136 461 64
2019-03-25 22:14:44 GMT 4.139008 100.204994 35,000 136 461 64
2019-03-25 22:14:37 GMT 4.149248 100.195221 35,000 136 461 0
2019-03-25 22:14:26 GMT 4.165009 100.180183 35,000 136 461 0
2019-03-25 22:14:15 GMT 4.182020 100.163918 35,000 136 461 0
2019-03-25 22:14:04 GMT 4.198081 100.148575 35,000 136 461 0
2019-03-25 22:13:55 GMT 4.213852 100.133537 35,000 136 460 0
2019-03-25 22:13:46 GMT 4.228638 100.119385 35,000 136 460 0
2019-03-25 22:13:43 GMT 4.230807 100.117317 35,000 136 460 0
2019-03-25 22:13:38 GMT 4.238814 100.109650 35,000 136 460 0
2019-03-25 22:13:33 GMT 4.246821 100.102020 35,000 136 460 0
2019-03-25 22:13:26 GMT 4.256644 100.092552 35,000 136 460 0
2019-03-25 22:13:23 GMT 4.263440 100.086113 35,000 136 459 0
2019-03-25 22:13:18 GMT 4.271759 100.078140 35,000 136 459 64
2019-03-25 22:13:12 GMT 4.280059 100.070198 35,000 136 459 64
2019-03-25 22:13:00 GMT 4.296982 100.053978 35,000 136 459 0
2019-03-25 22:12:52 GMT 4.309937 100.041595 35,000 136 459 0
2019-03-25 22:12:49 GMT 4.314555 100.037193 35,000 136 459 0
2019-03-25 22:12:42 GMT 4.324722 100.027443 35,000 136 459 0
2019-03-25 22:12:39 GMT 4.330261 100.022186 35,000 136 459 0
2019-03-25 22:12:29 GMT 4.346924 100.006264 35,000 136 461 0
2019-03-25 22:12:21 GMT 4.357755 99.995949 35,000 136 461 0
2019-03-25 22:12:18 GMT 4.362690 99.991211 35,000 136 461 0
2019-03-25 22:12:10 GMT 4.373816 99.980606 35,000 136 461 0
2019-03-25 22:12:06 GMT 4.379654 99.974983 35,000 136 461 0
2019-03-25 22:11:58 GMT 4.392343 99.962898 35,000 136 461 0
2019-03-25 22:11:55 GMT 4.397003 99.958458 35,000 136 461 0
2019-03-25 22:11:50 GMT 4.405655 99.950218 35,000 136 461 0
2019-03-25 22:11:45 GMT 4.412430 99.943695 35,000 136 461 0
2019-03-25 22:11:39 GMT 4.422044 99.934532 35,000 136 462 0
2019-03-25 22:11:36 GMT 4.427948 99.928894 35,000 136 462 0
2019-03-25 22:11:27 GMT 4.440665 99.916725 35,000 136 463 0
2019-03-25 22:11:24 GMT 4.445938 99.911667 35,000 136 463 0
2019-03-25 22:11:17 GMT 4.455515 99.902473 35,000 136 463 64
2019-03-25 22:11:13 GMT 4.462358 99.895935 35,000 136 463 0
2019-03-25 22:11:06 GMT 4.473221 99.885506 35,000 136 464 0
2019-03-25 22:11:02 GMT 4.479446 99.879547 35,000 136 463 0
2019-03-25 22:10:57 GMT 4.487217 99.872116 35,000 136 463 0
2019-03-25 22:10:51 GMT 4.496246 99.863487 35,000 136 463 64
2019-03-25 22:10:43 GMT 4.510529 99.849846 35,000 136 463 0
2019-03-25 22:10:40 GMT 4.513000 99.847473 35,000 136 463 0
2019-03-25 22:10:30 GMT 4.529205 99.832016 35,000 136 463 0
2019-03-25 22:10:19 GMT 4.545959 99.815956 35,000 136 464 0
2019-03-25 22:10:09 GMT 4.562445 99.800186 35,000 136 464 0
2019-03-25 22:09:58 GMT 4.579902 99.783470 35,000 136 464 64
2019-03-25 22:09:50 GMT 4.592983 99.770966 35,000 136 465 0
2019-03-25 22:09:47 GMT 4.596708 99.767365 35,000 136 465 0
2019-03-25 22:09:43 GMT 4.601990 99.762329 35,000 136 466 0
2019-03-25 22:09:36 GMT 4.613846 99.750969 35,000 136 465 64
2019-03-25 22:09:26 GMT 4.629456 99.736076 35,000 136 465 0
2019-03-25 22:09:17 GMT 4.644424 99.721741 35,000 136 466 0
2019-03-25 22:09:07 GMT 4.659348 99.707397 35,000 136 465 0
2019-03-25 22:09:04 GMT 4.663742 99.703209 35,000 136 465 0
2019-03-25 22:08:56 GMT 4.676545 99.690987 35,000 136 466 0
2019-03-25 22:08:53 GMT 4.679947 99.687706 35,000 136 466 0
2019-03-25 22:08:45 GMT 4.694654 99.673698 35,000 136 466 0
2019-03-25 22:08:42 GMT 4.697167 99.671288 35,000 136 466 0
2019-03-25 22:08:34 GMT 4.709976 99.659035 35,000 136 467 0
2019-03-25 22:08:31 GMT 4.714066 99.655136 35,000 136 466 0
2019-03-25 22:08:21 GMT 4.730918 99.638939 35,000 136 467 0
2019-03-25 22:08:13 GMT 4.744400 99.626076 35,000 136 467 0
2019-03-25 22:08:10 GMT 4.747816 99.622742 35,000 136 467 0
2019-03-25 22:08:02 GMT 4.760944 99.610146 35,000 136 467 64
2019-03-25 22:07:59 GMT 4.764109 99.607162 35,000 136 467 0
2019-03-25 22:07:52 GMT 4.778448 99.593338 35,000 136 467 64
2019-03-25 22:07:48 GMT 4.781613 99.590355 35,000 136 467 0
2019-03-25 22:07:41 GMT 4.797860 99.574776 35,000 136 466 0
2019-03-25 22:07:31 GMT 4.809448 99.563690 35,000 136 467 0
2019-03-25 22:07:27 GMT 4.815363 99.558014 35,000 136 467 0
2019-03-25 22:07:19 GMT 4.828538 99.545418 35,000 136 467 0
2019-03-25 22:07:16 GMT 4.831329 99.542740 35,000 136 467 0
2019-03-25 22:07:09 GMT 4.844831 99.529839 35,000 136 467 0
2019-03-25 22:07:05 GMT 4.848862 99.525940 35,000 136 467 64
2019-03-25 22:06:59 GMT 4.859216 99.516052 35,000 136 467 0
2019-03-25 22:06:54 GMT 4.865799 99.509735 35,000 136 467 0
2019-03-25 22:06:49 GMT 4.876766 99.499245 35,000 136 468 64
2019-03-25 22:06:44 GMT 4.882050 99.494141 35,000 136 468 0
2019-03-25 22:06:37 GMT 4.893664 99.483002 35,000 136 468 0
2019-03-25 22:06:32 GMT 4.901505 99.475471 35,000 136 468 0
2019-03-25 22:06:27 GMT 4.909012 99.468262 35,000 136 468 64
2019-03-25 22:06:23 GMT 4.915924 99.461647 35,000 136 468 0
2019-03-25 22:06:17 GMT 4.928160 99.449898 35,000 136 468 0
2019-03-25 22:06:12 GMT 4.932907 99.445404 35,000 136 468 0
2019-03-25 22:06:08 GMT 4.940123 99.438484 35,000 136 469 0
2019-03-25 22:06:05 GMT 4.945151 99.433655 35,000 136 469 0
2019-03-25 22:06:01 GMT 4.949574 99.429443 35,000 136 469 0
2019-03-25 22:05:54 GMT 4.961491 99.417984 35,000 136 469 0
2019-03-25 22:05:50 GMT 4.966873 99.412865 35,000 136 469 0
2019-03-25 22:05:43 GMT 4.978775 99.401459 35,000 136 469 0
2019-03-25 22:05:39 GMT 4.984162 99.396339 35,000 136 469 0
2019-03-25 22:05:33 GMT 4.994822 99.386116 35,000 136 469 0
2019-03-25 22:05:29 GMT 5.000502 99.380669 35,000 136 469 0
2019-03-25 22:05:22 GMT 5.011505 99.370125 35,000 136 469 0
2019-03-25 22:05:18 GMT 5.017181 99.364723 35,000 136 469 0
2019-03-25 22:05:12 GMT 5.028154 99.354195 35,000 136 469 0
2019-03-25 22:05:07 GMT 5.034164 99.348434 35,000 136 469 0
2019-03-25 22:05:01 GMT 5.045145 99.337906 35,000 136 468 0
2019-03-25 22:04:56 GMT 5.051102 99.332184 35,000 136 468 0
2019-03-25 22:04:50 GMT 5.061768 99.321945 35,000 136 468 0
2019-03-25 22:04:46 GMT 5.067723 99.316216 35,000 136 468 64
2019-03-25 22:04:40 GMT 5.079346 99.305092 35,000 136 468 0
2019-03-25 22:04:34 GMT 5.085617 99.299088 35,000 136 468 64
2019-03-25 22:04:28 GMT 5.097237 99.287949 35,000 136 468 0
2019-03-25 22:04:24 GMT 5.101613 99.283730 35,000 136 468 0
2019-03-25 22:04:17 GMT 5.112274 99.273453 35,000 136 468 0
2019-03-25 22:04:13 GMT 5.119769 99.266258 35,000 136 468 0
2019-03-25 22:04:08 GMT 5.128876 99.257515 35,000 136 468 64
2019-03-25 22:04:01 GMT 5.138576 99.248215 35,000 136 468 64
2019-03-25 22:03:57 GMT 5.146408 99.240669 35,000 136 468 0
2019-03-25 22:03:52 GMT 5.152355 99.234955 35,000 136 468 0
2019-03-25 22:03:46 GMT 5.162018 99.225632 35,000 136 468 0
2019-03-25 22:03:41 GMT 5.168884 99.218971 35,000 136 468 0
2019-03-25 22:03:36 GMT 5.179216 99.209053 35,000 136 468 0
2019-03-25 22:03:24 GMT 5.196396 99.192528 35,000 136 467 0
2019-03-25 22:03:20 GMT 5.202352 99.186798 35,000 136 467 0
2019-03-25 22:03:13 GMT 5.213333 99.176331 35,000 136 467 0
2019-03-25 22:02:52 GMT 5.247508 99.143608 35,000 131 469 0
2019-03-25 22:02:46 GMT 5.254956 99.136314 35,000 135 468 0
2019-03-25 22:02:41 GMT 5.262312 99.128929 35,000 131 469 0
2019-03-25 22:02:36 GMT 5.269821 99.121071 35,000 132 469 0
2019-03-25 22:02:31 GMT 5.278564 99.111389 35,000 131 469 0
2019-03-25 22:02:26 GMT 5.284286 99.104874 35,000 130 469 0
2019-03-25 22:02:20 GMT 5.295685 99.091698 35,000 130 469 64
2019-03-25 22:02:15 GMT 5.300217 99.086395 35,000 130 469 0
2019-03-25 22:02:10 GMT 5.308685 99.076477 35,000 130 469 0
2019-03-25 22:02:05 GMT 5.314911 99.069214 35,000 130 470 0
2019-03-25 22:01:58 GMT 5.323975 99.058601 35,000 130 469 0
2019-03-25 22:01:52 GMT 5.332652 99.048233 35,000 129 469 0
2019-03-25 22:01:49 GMT 5.339035 99.040489 35,000 129 469 -64
2019-03-25 22:01:43 GMT 5.345314 99.032700 35,000 128 469 64
2019-03-25 22:01:38 GMT 5.353321 99.022430 35,000 126 468 0
2019-03-25 22:01:32 GMT 5.359772 99.013680 35,000 125 468 64
2019-03-25 22:01:26 GMT 5.367233 99.002968 35,000 124 468 64
2019-03-25 22:01:21 GMT 5.372920 98.994728 35,000 124 469 0
2019-03-25 22:01:16 GMT 5.379809 98.984688 35,000 124 468 0
2019-03-25 22:01:11 GMT 5.385452 98.976433 35,000 124 469 0
2019-03-25 22:01:06 GMT 5.393542 98.964653 35,000 124 468 0
2019-03-25 22:01:00 GMT 5.399231 98.956421 35,000 124 468 0
2019-03-25 22:00:55 GMT 5.406344 98.945999 35,000 124 468 0
2019-03-25 22:00:50 GMT 5.412256 98.937424 35,000 124 468 64
2019-03-25 22:00:44 GMT 5.419418 98.927040 35,000 124 468 0
2019-03-25 22:00:39 GMT 5.425369 98.918480 35,000 124 469 64
2019-03-25 22:00:34 GMT 5.432327 98.908470 35,000 124 468 0
2019-03-25 22:00:27 GMT 5.439443 98.898071 35,000 123 469 0
2019-03-25 22:00:23 GMT 5.445511 98.889008 35,000 123 469 64
2019-03-25 22:00:17 GMT 5.452477 98.878471 35,000 123 469 0
2019-03-25 22:00:13 GMT 5.458203 98.869759 35,000 123 469 0
2019-03-25 22:00:05 GMT 5.466614 98.857033 35,000 123 469 0
2019-03-25 22:00:02 GMT 5.471191 98.850151 35,000 123 469 0
2019-03-25 21:59:56 GMT 5.477188 98.841064 35,000 123 469 0
2019-03-25 21:59:50 GMT 5.483917 98.830864 35,000 123 469 0
2019-03-25 21:59:44 GMT 5.491861 98.818893 35,000 123 469 64
2019-03-25 21:59:41 GMT 5.496414 98.811966 35,000 123 469 0
2019-03-25 21:59:33 GMT 5.505066 98.798882 35,000 123 469 0
2019-03-25 21:59:30 GMT 5.509872 98.791626 35,000 123 469 0
2019-03-25 21:59:24 GMT 5.515882 98.782532 35,000 123 470 0
2019-03-25 21:59:19 GMT 5.522120 98.773056 35,000 123 470 64
2019-03-25 21:59:13 GMT 5.528358 98.763588 35,000 123 470 0
2019-03-25 21:59:09 GMT 5.535108 98.753403 35,000 123 470 0
2019-03-25 21:59:03 GMT 5.541346 98.743935 35,000 123 470 0
2019-03-25 21:58:57 GMT 5.548325 98.733383 35,000 123 469 0
2019-03-25 21:58:52 GMT 5.554334 98.724281 35,000 123 469 0
2019-03-25 21:58:47 GMT 5.560572 98.714859 35,000 123 469 64
2019-03-25 21:58:40 GMT 5.568253 98.703209 35,000 123 469 0
2019-03-25 21:58:36 GMT 5.574025 98.694496 35,000 123 469 0
2019-03-25 21:58:30 GMT 5.580505 98.684692 35,000 123 469 0
2019-03-25 21:58:26 GMT 5.586501 98.675598 35,000 123 469 0
2019-03-25 21:58:19 GMT 5.593460 98.665047 35,000 123 469 0
2019-03-25 21:58:14 GMT 5.599955 98.655235 35,000 123 470 0
2019-03-25 21:58:09 GMT 5.605957 98.646103 35,000 123 470 0
2019-03-25 21:58:05 GMT 5.611725 98.637398 35,000 123 470 0
2019-03-25 21:57:58 GMT 5.618912 98.626457 35,000 123 470 0
2019-03-25 21:57:53 GMT 5.626144 98.615517 35,000 123 470 64
2019-03-25 21:57:47 GMT 5.632370 98.606064 35,000 123 471 0
2019-03-25 21:57:43 GMT 5.637222 98.598755 35,000 123 471 0
2019-03-25 21:57:36 GMT 5.645874 98.585632 35,000 123 471 0
2019-03-25 21:57:33 GMT 5.650464 98.578712 35,000 123 472 0
2019-03-25 21:57:25 GMT 5.658417 98.566635 35,000 123 471 0
2019-03-25 21:57:21 GMT 5.663452 98.558968 35,000 123 471 64
2019-03-25 21:57:14 GMT 5.671645 98.546555 35,000 123 470 0
2019-03-25 21:57:10 GMT 5.676440 98.539268 35,000 123 470 64
2019-03-25 21:57:01 GMT 5.689178 98.519989 35,000 123 470 0
2019-03-25 21:56:53 GMT 5.697575 98.507256 35,000 123 469 0
2019-03-25 21:56:49 GMT 5.702133 98.500343 35,000 123 469 0
2019-03-25 21:56:40 GMT 5.713915 98.482536 35,000 123 469 0
2019-03-25 21:56:29 GMT 5.726578 98.463242 35,000 123 469 0
2019-03-25 21:56:21 GMT 5.735934 98.449059 35,000 123 469 0
2019-03-25 21:56:18 GMT 5.739532 98.443596 35,000 123 470 0
2019-03-25 21:56:10 GMT 5.748688 98.429771 35,000 123 470 0
2019-03-25 21:56:07 GMT 5.753205 98.422867 35,000 123 470 0
2019-03-25 21:56:00 GMT 5.761139 98.410828 35,000 123 470 0
2019-03-25 21:55:56 GMT 5.766193 98.403168 35,000 123 470 0
2019-03-25 21:55:49 GMT 5.774139 98.391136 35,000 123 470 0
2019-03-25 21:55:45 GMT 5.778442 98.384567 35,000 123 470 0
2019-03-25 21:55:36 GMT 5.791191 98.365234 35,000 123 471 0
2019-03-25 21:55:27 GMT 5.800095 98.351707 35,000 123 471 0
2019-03-25 21:55:16 GMT 5.813350 98.331665 35,000 123 471 0
2019-03-25 21:55:06 GMT 5.831645 98.303864 35,000 123 472 0
2019-03-25 21:54:53 GMT 5.841980 98.288116 35,000 123 472 0
2019-03-25 21:54:45 GMT 5.851384 98.273842 35,000 123 472 0
2019-03-25 21:54:42 GMT 5.854065 98.269775 35,000 123 472 64
2019-03-25 21:54:31 GMT 5.867304 98.249641 35,000 123 472 0
2019-03-25 21:54:21 GMT 5.879608 98.230949 35,000 123 472 0
2019-03-25 21:54:11 GMT 5.892396 98.211571 35,000 123 472 64
2019-03-25 21:54:01 GMT 5.905197 98.192169 35,000 123 472 64
2019-03-25 21:53:52 GMT 5.915253 98.177284 35,000 124 472 0
2019-03-25 21:53:49 GMT 5.918518 98.172615 35,000 125 472 0
2019-03-25 21:53:39 GMT 5.931931 98.154182 35,000 126 471 0
2019-03-25 21:53:28 GMT 5.945389 98.135887 35,000 126 470 0
2019-03-25 21:53:22 GMT 5.954178 98.123924 35,000 126 470 0
2019-03-25 21:53:16 GMT 5.961411 98.114105 35,000 126 469 0
2019-03-25 21:53:11 GMT 5.968369 98.104591 35,000 126 468 0
2019-03-25 21:53:08 GMT 5.973025 98.098297 35,000 126 469 0
2019-03-25 21:53:00 GMT 5.982010 98.086029 35,000 126 467 64
2019-03-25 21:52:57 GMT 5.986679 98.079742 35,000 126 468 0
2019-03-25 21:52:49 GMT 5.996429 98.066429 35,000 126 467 0
2019-03-25 21:52:45 GMT 6.001053 98.060150 35,000 126 467 0
2019-03-25 21:52:36 GMT 6.014177 98.042320 35,000 126 467 0
2019-03-25 21:52:25 GMT 6.027537 98.024139 35,000 126 466 0
2019-03-25 21:52:15 GMT 6.041643 98.004959 35,000 126 466 0
2019-03-25 21:52:04 GMT 6.055252 97.986504 35,000 126 466 0
2019-03-25 21:51:55 GMT 6.066559 97.971138 35,000 126 465 0
2019-03-25 21:51:52 GMT 6.069122 97.967651 35,000 126 465 0
2019-03-25 21:51:43 GMT 6.082655 97.949272 35,000 126 464 0
2019-03-25 21:51:31 GMT 6.096435 97.930519 35,000 126 462 0
2019-03-25 21:51:21 GMT 6.109143 97.913231 35,000 126 462 64
2019-03-25 21:51:11 GMT 6.123642 97.893539 35,000 126 462 0
2019-03-25 21:50:59 GMT 6.137633 97.874542 35,000 126 461 64
2019-03-25 21:50:50 GMT 6.150055 97.857643 35,000 126 461 64
2019-03-25 21:50:38 GMT 6.163982 97.838600 35,000 126 462 0
2019-03-25 21:50:26 GMT 6.179352 97.817421 35,000 125 462 0
2019-03-25 21:50:17 GMT 6.189865 97.802284 35,000 123 461 64
2019-03-25 21:50:06 GMT 6.201828 97.782974 35,000 119 461 0
2019-03-25 21:49:57 GMT 6.213001 97.763168 35,000 119 462 64
2019-03-25 21:49:50 GMT 6.219286 97.751945 35,000 119 462 -64
2019-03-25 21:49:44 GMT 6.225815 97.740379 35,000 119 462 0
2019-03-25 21:49:36 GMT 6.234788 97.724243 35,000 118 463 0
2019-03-25 21:49:33 GMT 6.237255 97.719696 35,000 118 462 0
2019-03-25 21:49:22 GMT 6.248199 97.698715 35,000 115 464 64
2019-03-25 21:49:14 GMT 6.255131 97.683418 35,000 112 464 64
2019-03-25 21:49:04 GMT 6.263809 97.661339 35,000 111 465 64
2019-03-25 21:48:53 GMT 6.271637 97.641174 35,000 111 465 0
2019-03-25 21:48:43 GMT 6.280223 97.618973 35,000 111 465 0
2019-03-25 21:48:38 GMT 6.283016 97.611679 35,000 110 466 64
2019-03-25 21:48:31 GMT 6.288230 97.597946 35,000 110 466 0
2019-03-25 21:48:27 GMT 6.291535 97.588997 35,000 109 467 0
2019-03-25 21:48:22 GMT 6.295944 97.576286 35,000 108 467 64
2019-03-25 21:48:16 GMT 6.299103 97.566368 35,000 106 467 64
2019-03-25 21:48:11 GMT 6.302335 97.555092 35,000 105 467 0
2019-03-25 21:48:01 GMT 6.308441 97.532898 35,000 105 468 0
2019-03-25 21:47:50 GMT 6.315079 97.508598 35,000 105 467 0
2019-03-25 21:47:38 GMT 6.320909 97.487228 35,000 105 467 64
2019-03-25 21:47:28 GMT 6.326868 97.465446 35,000 105 467 64
2019-03-25 21:47:18 GMT 6.332827 97.443665 35,000 105 468 0
2019-03-25 21:47:10 GMT 6.336923 97.428558 35,000 105 468 0
2019-03-25 21:47:07 GMT 6.338972 97.421028 35,000 105 468 0
2019-03-25 21:47:00 GMT 6.342882 97.406776 35,000 105 467 0
2019-03-25 21:46:56 GMT 6.345062 97.398827 35,000 105 467 0
2019-03-25 21:46:49 GMT 6.349260 97.383331 35,000 105 468 64
2019-03-25 21:46:46 GMT 6.351308 97.375755 35,000 105 468 0
2019-03-25 21:46:34 GMT 6.357732 97.351418 35,000 104 467 0
2019-03-25 21:46:25 GMT 6.362667 97.331146 35,000 102 468 0
2019-03-25 21:46:13 GMT 6.367043 97.308937 35,000 100 468 0
2019-03-25 21:46:04 GMT 6.370907 97.285782 35,000 98 468 0
2019-03-25 21:45:52 GMT 6.373700 97.263336 35,000 96 468 64
2019-03-25 21:45:42 GMT 6.376190 97.240410 35,000 96 468 0
2019-03-25 21:45:32 GMT 6.378588 97.218399 35,000 96 468 0
2019-03-25 21:45:21 GMT 6.381088 97.195488 35,000 96 468 0
2019-03-25 21:45:10 GMT 6.383789 97.170395 35,000 96 468 0
2019-03-25 21:45:00 GMT 6.386032 97.149635 35,000 96 468 64
2019-03-25 21:44:50 GMT 6.388504 97.127098 35,000 96 469 0
2019-03-25 21:44:38 GMT 6.391064 97.103226 35,000 96 471 -64
2019-03-25 21:44:27 GMT 6.393717 97.078842 35,000 96 472 0
2019-03-25 21:44:16 GMT 6.396231 97.055260 35,000 96 472 64
2019-03-25 21:44:05 GMT 6.398791 97.031677 35,000 96 473 64
2019-03-25 21:43:55 GMT 6.401230 97.008438 35,000 96 474 0
2019-03-25 21:43:43 GMT 6.404052 96.982567 35,000 96 474 -64
2019-03-25 21:43:33 GMT 6.406845 96.959793 35,000 98 474 64
2019-03-25 21:43:25 GMT 6.411174 96.935501 35,000 103 474 64
2019-03-25 21:43:11 GMT 6.417412 96.913475 35,000 107 475 64
2019-03-25 21:43:04 GMT 6.423464 96.896004 35,000 109 474 -64
2019-03-25 21:43:00 GMT 6.425079 96.891403 35,000 109 474 0
2019-03-25 21:42:52 GMT 6.430893 96.874786 35,000 109 474 0
2019-03-25 21:42:49 GMT 6.433054 96.868538 35,000 109 473 0
2019-03-25 21:42:43 GMT 6.438446 96.853188 35,000 109 473 -64
2019-03-25 21:42:38 GMT 6.441055 96.845695 35,000 109 473 0
2019-03-25 21:42:31 GMT 6.446228 96.830750 35,000 109 474 0
2019-03-25 21:42:28 GMT 6.448695 96.823692 35,000 109 474 0
2019-03-25 21:42:20 GMT 6.454056 96.808311 35,000 109 474 0
2019-03-25 21:42:17 GMT 6.456940 96.799980 35,000 109 474 0
2019-03-25 21:42:11 GMT 6.461609 96.786667 35,000 109 474 0
2019-03-25 21:42:05 GMT 6.464942 96.777100 35,000 109 475 64
2019-03-25 21:41:59 GMT 6.469437 96.764183 34,975 109 475 0
2019-03-25 21:41:54 GMT 6.472916 96.754173 35,000 109 475 64
2019-03-25 21:41:48 GMT 6.477418 96.741249 35,000 109 475 0
2019-03-25 21:41:44 GMT 6.480789 96.731689 35,000 109 475 0
2019-03-25 21:41:39 GMT 6.484680 96.720459 35,000 109 474 0
2019-03-25 21:41:30 GMT 6.490356 96.704224 35,000 109 474 0
2019-03-25 21:41:27 GMT 6.492501 96.697968 35,000 109 474 -64
2019-03-25 21:41:18 GMT 6.500322 96.675522 35,000 109 473 0
2019-03-25 21:41:07 GMT 6.507431 96.655205 35,000 109 472 64
2019-03-25 21:40:58 GMT 6.513794 96.637001 35,000 109 472 0
2019-03-25 21:40:55 GMT 6.515808 96.631180 35,000 109 472 0
2019-03-25 21:40:46 GMT 6.523270 96.609673 35,000 109 472 64
2019-03-25 21:40:34 GMT 6.530907 96.587723 35,000 109 472 0
2019-03-25 21:40:23 GMT 6.538834 96.564934 35,000 109 472 0
2019-03-25 21:40:12 GMT 6.546781 96.542122 35,000 109 473 0
2019-03-25 21:40:02 GMT 6.554443 96.520149 35,000 109 473 0
2019-03-25 21:39:51 GMT 6.562225 96.497765 35,000 109 473 0
2019-03-25 21:39:40 GMT 6.570197 96.474922 35,000 109 473 0
2019-03-25 21:39:32 GMT 6.576574 96.456650 35,000 109 473 0
2019-03-25 21:39:29 GMT 6.578017 96.452477 35,000 109 473 0
2019-03-25 21:39:18 GMT 6.585792 96.430077 35,000 109 473 0
2019-03-25 21:39:10 GMT 6.591843 96.412651 35,000 109 473 0
2019-03-25 21:39:07 GMT 6.593892 96.406876 35,000 109 472 0
2019-03-25 21:39:00 GMT 6.599487 96.390694 35,000 109 472 64
2019-03-25 21:38:57 GMT 6.601387 96.385330 35,000 109 472 64
2019-03-25 21:38:49 GMT 6.607113 96.368706 35,000 109 473 0
2019-03-25 21:38:45 GMT 6.609604 96.361687 35,000 109 473 0
2019-03-25 21:38:39 GMT 6.614654 96.347160 35,000 109 473 0
2019-03-25 21:38:35 GMT 6.617214 96.339684 35,000 109 473 0
2019-03-25 21:38:28 GMT 6.622284 96.325150 35,000 109 473 64
2019-03-25 21:38:24 GMT 6.625168 96.316856 35,000 109 473 0
2019-03-25 21:38:17 GMT 6.630707 96.301079 35,000 109 473 0
2019-03-25 21:38:13 GMT 6.632856 96.294838 35,000 109 474 0
2019-03-25 21:38:07 GMT 6.637344 96.281944 35,000 109 474 0
2019-03-25 21:38:02 GMT 6.640677 96.272385 35,000 109 474 0
2019-03-25 21:37:56 GMT 6.645565 96.258232 35,000 109 474 0
2019-03-25 21:37:51 GMT 6.648730 96.249092 35,000 109 474 0
2019-03-25 21:37:45 GMT 6.653385 96.235786 35,000 109 474 0
2019-03-25 21:37:41 GMT 6.656387 96.227058 35,000 109 474 0
2019-03-25 21:37:35 GMT 6.661331 96.212906 35,000 109 474 64
2019-03-25 21:37:30 GMT 6.664325 96.204201 35,000 109 473 0
2019-03-25 21:37:24 GMT 6.668375 96.192551 35,000 109 473 0
2019-03-25 21:37:18 GMT 6.672425 96.180901 35,000 109 473 64
2019-03-25 21:37:14 GMT 6.676346 96.169708 35,000 109 473 0
2019-03-25 21:37:07 GMT 6.680374 96.158073 35,000 109 473 0
2019-03-25 21:37:03 GMT 6.683853 96.148109 35,000 109 473 0
2019-03-25 21:36:56 GMT 6.688202 96.135628 35,000 109 473 0
2019-03-25 21:36:53 GMT 6.691360 96.126511 35,000 109 473 64
2019-03-25 21:36:45 GMT 6.696259 96.112404 35,000 109 473 64
2019-03-25 21:36:40 GMT 6.699738 96.102440 35,000 109 472 0
2019-03-25 21:36:35 GMT 6.703895 96.090401 35,000 109 472 0
2019-03-25 21:36:30 GMT 6.707520 96.080048 35,000 109 472 0
2019-03-25 21:36:24 GMT 6.711669 96.068054 35,000 109 472 64
2019-03-25 21:36:13 GMT 6.719443 96.045700 35,000 109 471 0
2019-03-25 21:36:10 GMT 6.721724 96.039116 35,000 109 471 0
2019-03-25 21:36:00 GMT 6.729675 96.016365 35,000 109 470 0
2019-03-25 21:35:49 GMT 6.736993 95.995361 35,000 109 469 0
2019-03-25 21:35:39 GMT 6.745000 95.972252 35,000 109 469 0
2019-03-25 21:35:28 GMT 6.752014 95.952026 35,000 109 470 0
2019-03-25 21:35:17 GMT 6.760502 95.927689 35,000 109 471 0
2019-03-25 21:35:06 GMT 6.767671 95.906998 35,000 109 470 0
2019-03-25 21:34:56 GMT 6.774948 95.885880 35,000 109 471 0
2019-03-25 21:34:45 GMT 6.783406 95.861397 35,000 109 472 0
2019-03-25 21:34:33 GMT 6.791245 95.838531 35,000 108 473 0
2019-03-25 21:34:24 GMT 6.798209 95.818069 35,000 108 474 64
2019-03-25 21:34:13 GMT 6.805332 95.797234 35,000 108 475 0
2019-03-25 21:34:02 GMT 6.812967 95.774643 35,000 108 474 0
2019-03-25 21:33:52 GMT 6.820450 95.752510 35,000 108 474 0
2019-03-25 21:33:41 GMT 6.828003 95.729927 35,000 108 473 64
2019-03-25 21:33:30 GMT 6.835602 95.707443 35,000 108 473 0
2019-03-25 21:33:19 GMT 6.843412 95.684525 35,000 109 473 0
2019-03-25 21:33:08 GMT 6.851745 95.661369 35,000 110 473 0
2019-03-25 21:32:57 GMT 6.860413 95.638779 35,000 111 472 0
2019-03-25 21:32:46 GMT 6.868927 95.616669 35,000 111 472 0
2019-03-25 21:32:35 GMT 6.877581 95.594124 35,000 111 471 0
2019-03-25 21:32:27 GMT 6.884033 95.577332 35,000 111 471 0
2019-03-25 21:32:24 GMT 6.886054 95.572006 35,000 111 471 0
2019-03-25 21:32:16 GMT 6.892664 95.554871 35,000 111 471 0
2019-03-25 21:32:12 GMT 6.895340 95.547913 35,000 111 471 0
2019-03-25 21:32:06 GMT 6.901136 95.532799 35,000 111 471 64
2019-03-25 21:31:54 GMT 6.910080 95.509506 35,000 111 471 0
2019-03-25 21:31:39 GMT 6.921982 95.478455 35,000 111 471 0
2019-03-25 21:31:34 GMT 6.925902 95.468208 35,000 111 471 0
2019-03-25 21:31:23 GMT 6.934250 95.446564 35,000 111 471 0
2019-03-25 21:31:12 GMT 6.942673 95.424500 35,000 111 471 0
2019-03-25 21:31:01 GMT 6.951320 95.402054 35,000 111 470 0
2019-03-25 21:30:51 GMT 6.959702 95.380417 35,000 111 470 0
2019-03-25 21:30:37 GMT 6.971337 95.352570 35,000 114 471 64
2019-03-25 21:30:25 GMT 6.982590 95.328323 35,000 114 471 0
2019-03-25 21:30:04 GMT 7.001224 95.288216 35,000 114 471 0
2019-03-25 21:29:47 GMT 7.016876 95.254539 35,000 114 469 0
2019-03-25 21:29:37 GMT 7.026810 95.233170 35,000 114 469 0
2019-03-25 21:29:24 GMT 7.038345 95.208679 35,000 115 469 0
2019-03-25 21:29:16 GMT 7.046659 95.191849 35,000 117 470 0
2019-03-25 21:29:05 GMT 7.056900 95.172569 35,000 119 469 0
2019-03-25 21:28:55 GMT 7.068119 95.152824 35,000 120 470 0
2019-03-25 21:28:45 GMT 7.080322 95.133080 35,000 122 470 0
2019-03-25 21:28:31 GMT 7.095818 95.109261 35,000 123 471 0
2019-03-25 21:28:24 GMT 7.105637 95.094208 35,000 123 470 0
2019-03-25 21:28:15 GMT 7.116302 95.078148 35,000 124 471 0
2019-03-25 21:28:11 GMT 7.120491 95.071991 35,000 124 471 0
2019-03-25 21:28:02 GMT 7.133102 95.054596 35,000 126 472 0
2019-03-25 21:27:53 GMT 7.143906 95.040215 35,000 126 472 0
2019-03-25 21:27:46 GMT 7.154709 95.025780 35,000 126 472 0
2019-03-25 21:27:40 GMT 7.161317 95.017014 35,000 126 472 0
2019-03-25 21:27:29 GMT 7.175308 94.998360 35,000 127 473 0
2019-03-25 21:27:17 GMT 7.192507 94.975479 35,000 127 473 0
2019-03-25 21:27:08 GMT 7.203873 94.960373 35,000 127 473 0
2019-03-25 21:26:58 GMT 7.217056 94.942780 35,000 127 473 0
2019-03-25 21:26:47 GMT 7.231052 94.924149 35,000 127 473 0
2019-03-25 21:26:36 GMT 7.245856 94.904449 35,000 127 473 0
2019-03-25 21:26:25 GMT 7.259589 94.886169 35,000 126 472 0
2019-03-25 21:26:14 GMT 7.274643 94.866150 35,000 126 472 64
2019-03-25 21:26:03 GMT 7.289149 94.846863 35,000 126 472 0
2019-03-25 21:25:53 GMT 7.303116 94.828255 35,000 126 472 0
2019-03-25 21:25:44 GMT 7.314986 94.812485 35,000 126 471 0
2019-03-25 21:25:38 GMT 7.322067 94.802933 35,000 126 471 64
2019-03-25 21:25:33 GMT 7.329254 94.793015 35,000 125 471 0
2019-03-25 21:25:21 GMT 7.344407 94.769913 35,000 120 470 0
2019-03-25 21:25:11 GMT 7.353438 94.752914 35,000 115 470 0
2019-03-25 21:24:58 GMT 7.366426 94.726112 35,000 115 471 64
2019-03-25 21:24:51 GMT 7.373108 94.712296 35,000 115 471 0
2019-03-25 21:24:40 GMT 7.383650 94.690598 35,000 115 471 0
2019-03-25 21:24:30 GMT 7.393240 94.670891 35,000 115 471 0
2019-03-25 21:23:55 GMT 7.426246 94.603035 35,000 116 472 0
2019-03-25 21:23:50 GMT 7.431061 94.593170 35,000 116 472 0
2019-03-25 21:23:08 GMT 7.471527 94.511147 35,000 116 473 0
2019-03-25 21:23:05 GMT 7.474427 94.505249 35,000 116 473 0
2019-03-25 21:22:52 GMT 7.487276 94.479248 35,000 116 471 0
2019-03-25 21:22:44 GMT 7.495795 94.461914 35,000 115 471 0
2019-03-25 21:22:12 GMT 7.525131 94.398628 35,000 114 471 0
2019-03-25 21:21:28 GMT 7.564224 94.311531 35,000 114 470 0
We lost coverage of the aircraft here for a total of 102 minutes
2019-03-25 19:39:28 GMT 13.578964 81.697937 35,000 116 508 0
2019-03-25 19:38:50 GMT 13.619323 81.615311 35,000 116 509 0
2019-03-25 19:38:41 GMT 13.628633 81.596275 35,000 116 509 0
2019-03-25 19:38:29 GMT 13.640717 81.571594 35,000 116 509 0
2019-03-25 19:38:05 GMT 13.666443 81.518745 35,000 116 510 0
2019-03-25 19:37:57 GMT 13.674500 81.502312 35,000 116 510 0
2019-03-25 19:37:45 GMT 13.686544 81.477547 35,000 116 510 0
2019-03-25 19:37:34 GMT 13.697800 81.454575 35,000 116 511 0
2019-03-25 19:37:23 GMT 13.709244 81.431183 35,000 116 509 0
2019-03-25 19:37:12 GMT 13.721100 81.406937 35,000 116 509 0
2019-03-25 19:37:00 GMT 13.734027 81.380501 35,000 116 509 0
2019-03-25 19:36:50 GMT 13.744222 81.359688 35,000 116 510 0
2019-03-25 19:36:40 GMT 13.756093 81.335403 35,000 116 511 0
2019-03-25 19:36:30 GMT 13.767380 81.312416 35,000 116 511 0
2019-03-25 19:36:19 GMT 13.778624 81.289383 35,000 116 512 0
2019-03-25 19:36:08 GMT 13.790914 81.264183 35,000 116 512 0
2019-03-25 19:35:57 GMT 13.802216 81.241150 35,000 116 512 0
2019-03-25 19:35:46 GMT 13.813864 81.217247 35,000 116 512 0
2019-03-25 19:35:35 GMT 13.825782 81.192871 35,000 116 512 0
2019-03-25 19:35:23 GMT 13.837699 81.168533 35,000 116 512 0
2019-03-25 19:35:13 GMT 13.849151 81.145020 35,000 116 512 0
2019-03-25 19:35:00 GMT 13.862549 81.117599 35,000 116 512 0
2019-03-25 19:34:51 GMT 13.872101 81.097992 35,000 116 512 0
2019-03-25 19:34:44 GMT 13.879944 81.081848 35,000 116 512 0
2019-03-25 19:34:40 GMT 13.883972 81.073509 35,000 116 513 0
2019-03-25 19:34:35 GMT 13.888208 81.064789 35,000 116 514 0
2019-03-25 19:34:29 GMT 13.895843 81.049080 35,000 116 513 0
2019-03-25 19:34:25 GMT 13.899445 81.041641 35,000 116 514 0
2019-03-25 19:34:18 GMT 13.907043 81.025871 35,000 116 514 0
2019-03-25 19:34:15 GMT 13.909607 81.020615 35,000 116 514 0
2019-03-25 19:34:06 GMT 13.918076 81.003052 35,000 116 515 0
2019-03-25 19:34:03 GMT 13.922287 80.994286 35,000 116 515 0
2019-03-25 19:33:55 GMT 13.930571 80.977142 35,000 116 516 0
2019-03-25 19:33:44 GMT 13.943326 80.950783 35,000 116 516 0
2019-03-25 19:33:34 GMT 13.953940 80.928764 35,000 116 517 0
2019-03-25 19:33:23 GMT 13.965591 80.904503 35,000 116 517 0
2019-03-25 19:33:14 GMT 13.974749 80.885536 35,000 116 516 0
2019-03-25 19:33:10 GMT 13.979233 80.876328 35,000 116 517 0
2019-03-25 19:32:59 GMT 13.989785 80.854752 35,000 117 517 0
2019-03-25 19:32:50 GMT 14.001022 80.832474 35,000 117 517 0
2019-03-25 19:32:39 GMT 14.012970 80.808846 35,000 117 517 64
2019-03-25 19:32:27 GMT 14.025584 80.783913 35,000 117 519 0
2019-03-25 19:32:18 GMT 14.036865 80.761543 35,000 117 519 0
2019-03-25 19:32:09 GMT 14.045746 80.744019 35,000 117 518 0
2019-03-25 19:31:59 GMT 14.056778 80.722137 35,000 117 517 64
2019-03-25 19:31:55 GMT 14.060545 80.714722 35,000 117 517 64
2019-03-25 19:31:48 GMT 14.068459 80.698967 35,000 117 517 0
2019-03-25 19:31:38 GMT 14.079957 80.676224 35,000 117 517 0
2019-03-25 19:31:32 GMT 14.085938 80.664413 35,000 117 517 0
2019-03-25 19:31:24 GMT 14.103149 80.630272 35,000 117 517 0
2019-03-25 19:31:14 GMT 14.106864 80.622833 35,000 117 517 0
2019-03-25 19:31:03 GMT 14.118363 80.600090 35,000 117 517 0
2019-03-25 19:30:52 GMT 14.130699 80.575607 35,000 117 517 0
2019-03-25 19:30:42 GMT 14.142151 80.552864 35,000 117 517 0
2019-03-25 19:30:31 GMT 14.153824 80.529694 35,000 117 517 0
2019-03-25 19:30:20 GMT 14.166870 80.503860 35,000 117 518 0
2019-03-25 19:30:09 GMT 14.177261 80.483238 35,000 117 519 64
2019-03-25 19:30:02 GMT 14.186554 80.464767 35,000 117 519 0
2019-03-25 19:29:59 GMT 14.189401 80.459045 35,000 117 519 0
2019-03-25 19:29:49 GMT 14.200900 80.436211 35,000 117 521 0
2019-03-25 19:29:40 GMT 14.210676 80.416786 35,000 117 521 0
2019-03-25 19:29:36 GMT 14.214679 80.408890 35,000 117 521 0
2019-03-25 19:29:30 GMT 14.221336 80.395638 35,000 117 521 0
2019-03-25 19:29:26 GMT 14.225098 80.388145 35,000 117 521 0
2019-03-25 19:29:17 GMT 14.236633 80.365181 35,000 117 521 0
2019-03-25 19:29:09 GMT 14.244426 80.349716 35,000 117 522 0
2019-03-25 19:29:05 GMT 14.248169 80.342216 35,000 117 522 0
2019-03-25 19:28:59 GMT 14.256638 80.325447 35,000 117 522 0
2019-03-25 19:28:53 GMT 14.261744 80.315262 35,000 117 522 0
2019-03-25 19:28:45 GMT 14.272202 80.294479 35,000 117 523 0
2019-03-25 19:28:37 GMT 14.279992 80.279030 35,000 117 523 0
2019-03-25 19:28:32 GMT 14.285346 80.268379 35,000 117 523 64
2019-03-25 19:28:25 GMT 14.293579 80.251999 35,000 117 523 0
2019-03-25 19:28:20 GMT 14.298706 80.241829 35,000 117 524 0
2019-03-25 19:28:16 GMT 14.303594 80.232048 35,000 117 524 0
2019-03-25 19:28:12 GMT 14.309143 80.220985 35,000 117 524 0
2019-03-25 19:28:05 GMT 14.315139 80.209015 35,000 117 524 0
2019-03-25 19:28:02 GMT 14.319397 80.200623 35,000 117 523 0
2019-03-25 19:27:55 GMT 14.326731 80.185982 35,000 117 522 0
2019-03-25 19:27:50 GMT 14.332037 80.175377 35,000 117 522 0
2019-03-25 19:27:44 GMT 14.339160 80.161217 35,000 117 522 0
2019-03-25 19:27:39 GMT 14.344254 80.150993 35,000 117 522 0
2019-03-25 19:27:34 GMT 14.349976 80.139534 35,000 117 521 0
2019-03-25 19:27:30 GMT 14.355743 80.128029 35,000 117 521 64
2019-03-25 19:27:24 GMT 14.361691 80.116112 35,000 117 521 64
2019-03-25 19:27:18 GMT 14.367464 80.104645 35,000 117 520 0
2019-03-25 19:27:13 GMT 14.373413 80.092697 35,000 117 520 0
2019-03-25 19:27:06 GMT 14.380508 80.078590 35,000 117 520 0
2019-03-25 19:27:03 GMT 14.385154 80.069321 35,000 117 520 0
2019-03-25 19:26:58 GMT 14.390671 80.058319 35,000 117 520 0
2019-03-25 19:26:51 GMT 14.397071 80.045517 35,000 117 520 0
2019-03-25 19:26:46 GMT 14.402797 80.034096 35,000 117 520 0
2019-03-25 19:26:40 GMT 14.410492 80.018684 35,000 117 520 0
2019-03-25 19:26:34 GMT 14.416214 80.007225 35,000 117 519 0
2019-03-25 19:26:25 GMT 14.426120 79.987404 35,000 117 519 0
2019-03-25 19:26:18 GMT 14.434499 79.970688 35,000 117 519 0
2019-03-25 19:25:53 GMT 14.461825 79.916092 35,000 117 520 0
2019-03-25 19:25:40 GMT 14.476593 79.886566 35,000 117 520 0
2019-03-25 19:24:53 GMT 14.528814 79.781944 35,000 117 520 0
2019-03-25 19:24:50 GMT 14.531662 79.776230 35,000 117 520 0
2019-03-25 19:24:36 GMT 14.545992 79.747536 35,000 117 520 0
2019-03-25 19:24:27 GMT 14.555511 79.728539 35,000 117 520 0
2019-03-25 19:24:18 GMT 14.567173 79.705185 35,000 117 520 0
2019-03-25 19:24:11 GMT 14.574202 79.691063 35,000 117 520 0
2019-03-25 19:24:05 GMT 14.580813 79.677818 35,000 117 520 64
2019-03-25 19:23:54 GMT 14.592865 79.653580 35,000 117 518 0
2019-03-25 19:23:44 GMT 14.603394 79.632462 35,000 117 518 0
2019-03-25 19:23:41 GMT 14.608200 79.622749 35,000 117 518 0
2019-03-25 19:23:34 GMT 14.614982 79.609100 35,000 117 518 0
2019-03-25 19:23:23 GMT 14.625968 79.587082 35,000 117 518 0
2019-03-25 19:23:12 GMT 14.638212 79.562408 35,000 117 519 0
2019-03-25 19:23:09 GMT 14.643265 79.552238 35,000 117 519 0
2019-03-25 19:23:02 GMT 14.649857 79.538979 34,975 117 521 0
2019-03-25 19:22:58 GMT 14.654663 79.529274 35,000 117 521 0
2019-03-25 19:22:50 GMT 14.662372 79.513794 34,975 117 521 0
2019-03-25 19:22:44 GMT 14.669632 79.499153 35,000 117 521 0
2019-03-25 19:22:40 GMT 14.673358 79.491623 35,000 117 521 0
2019-03-25 19:22:37 GMT 14.676896 79.484543 35,000 117 522 0
2019-03-25 19:22:30 GMT 14.684857 79.468590 35,000 117 521 0
2019-03-25 19:22:23 GMT 14.691886 79.454430 35,000 117 521 64
2019-03-25 19:22:20 GMT 14.696091 79.446022 35,000 117 521 0
2019-03-25 19:22:13 GMT 14.703757 79.430573 35,000 117 521 0
2019-03-25 19:22:09 GMT 14.708180 79.421707 35,000 117 521 0
2019-03-25 19:22:05 GMT 14.713440 79.411110 35,000 117 519 0
2019-03-25 19:21:57 GMT 14.721130 79.395638 35,000 117 519 0
2019-03-25 19:21:54 GMT 14.725525 79.386826 35,000 117 519 0
2019-03-25 19:21:46 GMT 14.733178 79.371353 35,000 117 520 0
2019-03-25 19:21:41 GMT 14.739789 79.358154 35,000 116 519 64
2019-03-25 19:21:36 GMT 14.743927 79.349747 35,000 117 518 64
2019-03-25 19:21:32 GMT 14.748959 79.339600 35,000 116 518 0
2019-03-25 19:21:27 GMT 14.754868 79.327728 35,000 117 518 0
2019-03-25 19:21:21 GMT 14.761622 79.314064 35,000 117 518 0
2019-03-25 19:21:15 GMT 14.766678 79.303909 35,000 117 519 0
2019-03-25 19:21:08 GMT 14.774094 79.288895 35,000 116 519 0
2019-03-25 19:21:05 GMT 14.778660 79.279610 35,000 116 519 0
2019-03-25 19:20:53 GMT 14.790484 79.255760 35,000 117 519 0
2019-03-25 19:20:43 GMT 14.803193 79.230125 35,000 117 521 0
2019-03-25 19:20:32 GMT 14.813294 79.209740 35,000 117 521 0
2019-03-25 19:20:22 GMT 14.824746 79.186707 35,000 116 522 0
2019-03-25 19:20:15 GMT 14.834010 79.168068 35,000 116 522 0
2019-03-25 19:20:11 GMT 14.836617 79.162720 35,000 116 522 0
2019-03-25 19:20:02 GMT 14.848251 79.139145 35,000 116 523 0
2019-03-25 19:19:50 GMT 14.859695 79.116020 35,000 116 523 64
2019-03-25 19:19:40 GMT 14.872055 79.091057 35,000 116 523 64
2019-03-25 19:19:28 GMT 14.883728 79.067429 35,000 116 523 64
2019-03-25 19:19:19 GMT 14.894485 79.045570 35,000 116 523 0
2019-03-25 19:19:09 GMT 14.906387 79.021523 35,000 116 523 0
2019-03-25 19:18:56 GMT 14.919806 78.994301 35,000 116 523 64
2019-03-25 19:18:47 GMT 14.929908 78.973801 35,000 116 523 0
2019-03-25 19:18:36 GMT 14.942413 78.948380 35,000 116 523 0
2019-03-25 19:18:23 GMT 14.955185 78.922554 35,000 116 523 0
2019-03-25 19:18:15 GMT 14.965302 78.902077 35,000 116 522 0
2019-03-25 19:18:03 GMT 14.977661 78.877159 35,000 116 523 0
2019-03-25 19:17:55 GMT 14.986862 78.858421 35,000 116 523 64
2019-03-25 19:17:42 GMT 15.000504 78.830811 35,000 116 523 64
2019-03-25 19:17:34 GMT 15.009931 78.811600 35,000 116 523 0
2019-03-25 19:17:31 GMT 15.012817 78.805847 35,000 116 523 0
2019-03-25 19:17:20 GMT 15.026001 78.779053 35,000 116 524 0
2019-03-25 19:17:10 GMT 15.035706 78.759346 35,000 116 524 0
2019-03-25 19:17:00 GMT 15.047359 78.735680 35,000 116 525 64
2019-03-25 19:16:50 GMT 15.058811 78.712379 35,000 116 525 0
2019-03-25 19:16:38 GMT 15.070908 78.687744 35,000 116 525 0
2019-03-25 19:16:30 GMT 15.080566 78.668037 35,000 116 525 0
2019-03-25 19:16:27 GMT 15.083221 78.662689 35,000 116 525 0
2019-03-25 19:16:20 GMT 15.092056 78.644760 35,000 116 525 0
2019-03-25 19:16:17 GMT 15.094889 78.638908 35,000 116 525 64
2019-03-25 19:16:09 GMT 15.103500 78.621490 35,000 116 524 0
2019-03-25 19:16:06 GMT 15.106806 78.614777 35,000 116 524 0
2019-03-25 19:15:56 GMT 15.118423 78.591034 35,000 116 524 0
2019-03-25 19:15:48 GMT 15.126343 78.574944 35,000 116 524 0
2019-03-25 19:15:45 GMT 15.130280 78.566895 35,000 116 524 0
2019-03-25 19:15:38 GMT 15.138369 78.550331 35,000 116 524 0
2019-03-25 19:15:34 GMT 15.141907 78.543175 35,000 116 524 0
2019-03-25 19:15:26 GMT 15.149774 78.527084 35,000 116 524 0
2019-03-25 19:15:23 GMT 15.154404 78.517700 35,000 116 524 0
2019-03-25 19:15:16 GMT 15.161407 78.503342 34,975 116 525 64
2019-03-25 19:15:12 GMT 15.165802 78.494377 34,975 116 525 0
2019-03-25 19:15:06 GMT 15.172585 78.480492 35,000 116 525 0
2019-03-25 19:15:01 GMT 15.178311 78.468864 35,000 116 525 0
2019-03-25 19:14:55 GMT 15.184455 78.456314 35,000 116 525 0
2019-03-25 19:14:50 GMT 15.190384 78.444214 35,000 116 525 0
2019-03-25 19:14:45 GMT 15.196564 78.431686 35,000 116 525 0
2019-03-25 19:14:39 GMT 15.202286 78.420029 35,000 116 525 0
2019-03-25 19:14:34 GMT 15.207778 78.408836 35,000 116 525 0
2019-03-25 19:14:30 GMT 15.212402 78.399399 35,000 116 526 0
2019-03-25 19:14:24 GMT 15.219649 78.384605 35,000 116 526 0
2019-03-25 19:14:20 GMT 15.223389 78.376945 35,000 116 526 0
2019-03-25 19:14:13 GMT 15.230896 78.361671 35,000 116 527 0
2019-03-25 19:14:08 GMT 15.236160 78.350876 35,000 116 527 0
2019-03-25 19:14:02 GMT 15.242553 78.337814 35,000 116 527 0
2019-03-25 19:13:59 GMT 15.246735 78.329247 35,000 116 527 0
2019-03-25 19:13:52 GMT 15.254051 78.314369 35,000 116 527 0
2019-03-25 19:13:47 GMT 15.258893 78.304466 35,000 116 527 0
2019-03-25 19:13:41 GMT 15.265732 78.290504 35,000 116 528 0
2019-03-25 19:13:38 GMT 15.270584 78.280579 35,000 116 528 0
2019-03-25 19:13:30 GMT 15.278091 78.265251 35,000 116 528 0
2019-03-25 19:13:26 GMT 15.282486 78.256195 35,000 116 529 0
2019-03-25 19:13:20 GMT 15.288919 78.243111 35,000 116 529 0
2019-03-25 19:13:16 GMT 15.293807 78.233200 35,000 116 529 0
2019-03-25 19:13:09 GMT 15.301117 78.218269 35,000 116 529 0
2019-03-25 19:13:06 GMT 15.305557 78.209259 35,000 116 529 0
2019-03-25 19:12:58 GMT 15.312893 78.194305 35,000 116 529 0
2019-03-25 19:12:49 GMT 15.324646 78.170372 35,000 116 529 0
2019-03-25 19:12:38 GMT 15.335936 78.147270 35,000 116 530 0
2019-03-25 19:12:28 GMT 15.348038 78.122337 35,000 116 530 0
2019-03-25 19:12:17 GMT 15.358566 78.100510 35,000 116 531 0
2019-03-25 19:12:12 GMT 15.364700 78.087738 35,000 116 531 0
2019-03-25 19:12:07 GMT 15.370618 78.075470 35,000 116 531 0
2019-03-25 19:12:01 GMT 15.377426 78.061333 35,000 116 532 0
2019-03-25 19:11:56 GMT 15.382023 78.051781 35,000 116 532 64
2019-03-25 19:11:50 GMT 15.388824 78.037621 35,000 116 532 0
2019-03-25 19:11:45 GMT 15.393631 78.027603 35,000 116 532 64
2019-03-25 19:11:40 GMT 15.399527 78.015244 35,000 116 532 0
2019-03-25 19:11:34 GMT 15.405441 78.002930 35,000 116 532 64
2019-03-25 19:11:30 GMT 15.411163 77.991028 35,000 116 532 64
2019-03-25 19:11:25 GMT 15.416611 77.979630 35,000 116 532 64
2019-03-25 19:11:18 GMT 15.423175 77.965950 35,000 116 532 0
2019-03-25 19:11:13 GMT 15.428238 77.955421 35,000 116 532 0
2019-03-25 19:11:08 GMT 15.434372 77.942650 35,000 116 533 0
2019-03-25 19:11:03 GMT 15.440074 77.930733 35,000 116 533 0
2019-03-25 19:10:58 GMT 15.446638 77.917053 35,000 116 533 0
2019-03-25 19:10:49 GMT 15.455612 77.898315 35,000 116 533 0
2019-03-25 19:10:46 GMT 15.458462 77.892380 35,000 116 533 0
2019-03-25 19:10:36 GMT 15.470490 77.867241 35,000 116 533 0
2019-03-25 19:10:32 GMT 15.475081 77.857605 35,000 116 533 0
2019-03-25 19:10:25 GMT 15.481888 77.843437 35,000 116 533 64
2019-03-25 19:10:20 GMT 15.486905 77.832939 35,000 116 533 64
2019-03-25 19:10:14 GMT 15.493935 77.818268 35,000 116 533 0
2019-03-25 19:10:11 GMT 15.497635 77.810478 35,000 116 533 0
2019-03-25 19:10:04 GMT 15.505759 77.793549 35,000 116 533 0
2019-03-25 19:09:59 GMT 15.509669 77.785309 35,000 116 533 0
2019-03-25 19:09:52 GMT 15.517583 77.768784 35,000 116 533 0
2019-03-25 19:09:49 GMT 15.520432 77.762817 35,000 116 533 0
2019-03-25 19:09:43 GMT 15.528763 77.745422 35,000 116 533 0
2019-03-25 19:09:32 GMT 15.540394 77.721107 35,000 116 534 0
2019-03-25 19:09:26 GMT 15.546341 77.708755 35,000 116 534 64
2019-03-25 19:09:21 GMT 15.552017 77.696854 35,000 116 534 0
2019-03-25 19:09:18 GMT 15.555130 77.690445 35,000 116 534 64
2019-03-25 19:09:11 GMT 15.564089 77.671623 35,000 116 533 0
2019-03-25 19:09:08 GMT 15.566277 77.667061 35,000 116 533 64
2019-03-25 19:08:59 GMT 15.575684 77.647324 35,000 116 533 0
2019-03-25 19:08:56 GMT 15.578520 77.641365 35,000 116 533 64
2019-03-25 19:08:49 GMT 15.587036 77.623512 35,000 116 532 0
2019-03-25 19:08:39 GMT 15.598846 77.598801 35,000 116 532 0
2019-03-25 19:08:28 GMT 15.609741 77.575905 35,000 116 531 0
2019-03-25 19:08:18 GMT 15.621872 77.550323 35,000 116 531 0
2019-03-25 19:08:14 GMT 15.624481 77.544876 35,000 116 530 0
2019-03-25 19:08:04 GMT 15.635128 77.522522 35,000 116 531 64
2019-03-25 19:07:56 GMT 15.645355 77.501076 35,000 116 530 64
2019-03-25 19:07:53 GMT 15.646859 77.497856 34,975 116 530 0
2019-03-25 19:07:44 GMT 15.657287 77.475975 35,000 116 531 0
2019-03-25 19:07:41 GMT 15.659893 77.470482 35,000 116 531 0
2019-03-25 19:07:33 GMT 15.669662 77.449951 35,000 116 531 0
2019-03-25 19:07:21 GMT 15.682052 77.423943 35,000 116 530 0
2019-03-25 19:07:13 GMT 15.691360 77.404320 35,000 116 530 0
2019-03-25 19:07:01 GMT 15.704165 77.377396 35,000 116 530 0
2019-03-25 19:06:52 GMT 15.714220 77.356407 35,000 116 531 0
2019-03-25 19:06:42 GMT 15.726044 77.331833 35,000 116 530 0
2019-03-25 19:06:29 GMT 15.752472 77.276726 35,000 116 529 64
2019-03-25 19:06:17 GMT 15.752472 77.276726 35,000 116 529 64
2019-03-25 19:06:09 GMT 15.761424 77.258064 35,000 116 529 0
2019-03-25 19:05:58 GMT 15.773849 77.232101 35,000 116 529 0
2019-03-25 19:05:46 GMT 15.787167 77.204361 35,000 116 529 0
2019-03-25 19:05:36 GMT 15.796711 77.184349 35,000 116 529 0
2019-03-25 19:05:26 GMT 15.808907 77.158844 35,000 116 528 0
2019-03-25 19:04:57 GMT 15.839352 77.095184 35,000 116 529 0
2019-03-25 19:04:49 GMT 15.848282 77.076515 35,000 116 529 0
2019-03-25 19:04:30 GMT 15.868744 77.033722 35,000 116 529 0
2019-03-25 19:04:27 GMT 15.873289 77.024162 35,000 116 529 0
2019-03-25 19:03:54 GMT 15.908576 76.950302 35,000 116 530 64
2019-03-25 19:03:46 GMT 15.917953 76.930656 35,000 116 530 64
2019-03-25 19:03:26 GMT 15.937764 76.889091 35,000 116 531 0
2019-03-25 19:03:20 GMT 15.945166 76.873543 35,000 116 531 0
We lost coverage of the aircraft here for a total of 22 minutes
2019-03-25 18:41:43 GMT 17.437862 73.925087 35,000 118 543 0
2019-03-25 18:41:40 GMT 17.441895 73.917175 35,000 118 543 0
We lost coverage of the aircraft here for a total of 6 minutes
2019-03-25 18:35:18 GMT 17.994690 73.094116 26,725 130 536 1408
2019-03-25 18:34:57 GMT 18.030350 73.051086 26,150 130 527 1920
2019-03-25 18:34:47 GMT 18.045416 73.032845 25,875 132 526 1856
2019-03-25 18:34:22 GMT 18.090385 72.991150 25,150 144 520 2048
2019-03-25 18:34:13 GMT 18.108810 72.979187 24,850 151 517 2240
2019-03-25 18:34:01 GMT 18.135216 72.965942 24,425 159 514 2176
2019-03-25 18:33:50 GMT 18.159515 72.957016 24,125 161 511 1472
2019-03-25 18:33:39 GMT 18.184654 72.948288 23,850 161 505 1728
2019-03-25 18:33:26 GMT 18.213501 72.938278 23,525 161 497 1216
2019-03-25 18:33:15 GMT 18.237167 72.930092 23,325 161 491 1280
2019-03-25 18:32:04 GMT 18.383514 72.879425 21,300 161 460 2624
2019-03-25 18:31:56 GMT 18.400936 72.873360 20,950 161 458 2496
2019-03-25 18:31:46 GMT 18.422333 72.866035 20,550 161 455 2368
2019-03-25 18:31:39 GMT 18.436752 72.861084 20,275 161 448 2624
2019-03-25 18:31:35 GMT 18.443579 72.858780 20,150 161 451 2496
2019-03-25 18:31:27 GMT 18.460243 72.853035 19,800 161 448 2624
2019-03-25 18:31:20 GMT 18.475662 72.847694 19,475 161 447 2816
2019-03-25 18:31:08 GMT 18.497681 72.840141 18,975 161 444 2624
2019-03-25 18:30:58 GMT 18.519178 72.832664 18,550 161 441 2688
2019-03-25 18:30:41 GMT 18.550552 72.821800 17,800 161 437 3008
2019-03-25 18:30:38 GMT 18.556328 72.819778 17,650 161 437 2944
2019-03-25 18:30:32 GMT 18.568268 72.815666 17,400 161 435 2304
2019-03-25 18:30:29 GMT 18.571335 72.814590 17,350 161 434 2176
2019-03-25 18:30:23 GMT 18.585423 72.809639 17,125 161 427 2368
2019-03-25 18:30:11 GMT 18.606903 72.802132 16,675 161 425 2688
2019-03-25 18:30:00 GMT 18.628157 72.794708 16,200 161 420 2688
2019-03-25 18:29:48 GMT 18.650620 72.786827 15,700 161 416 2880
2019-03-25 18:29:37 GMT 18.670706 72.779732 15,150 161 412 2880
2019-03-25 18:29:25 GMT 18.692492 72.772141 14,625 161 407 2560
2019-03-25 18:29:14 GMT 18.711811 72.765350 14,200 161 403 2752
2019-03-25 18:29:02 GMT 18.733086 72.758110 13,600 162 398 2688
2019-03-25 18:28:51 GMT 18.753067 72.751419 13,200 163 393 2688
2019-03-25 18:28:39 GMT 18.773575 72.746414 12,725 170 387 2496
2019-03-25 18:28:27 GMT 18.794128 72.743912 12,300 177 379 1664
2019-03-25 18:28:16 GMT 18.813902 72.743874 12,075 182 366 1152
2019-03-25 18:28:09 GMT 18.824341 72.744156 11,950 182 357 1216
2019-03-25 18:28:05 GMT 18.831917 72.744324 11,875 182 350 1280
2019-03-25 18:27:58 GMT 18.843887 72.744644 11,700 182 341 1344
2019-03-25 18:27:53 GMT 18.850845 72.744797 11,625 182 336 1472
2019-03-25 18:27:47 GMT 18.858902 72.745041 11,500 182 328 1536
2019-03-25 18:27:42 GMT 18.868011 72.745285 11,350 182 323 1728
2019-03-25 18:27:37 GMT 18.874931 72.745476 11,225 182 318 1600
2019-03-25 18:27:31 GMT 18.885178 72.745728 11,050 182 310 1472
2019-03-25 18:27:20 GMT 18.898865 72.746071 10,850 182 308 1344
2019-03-25 18:27:17 GMT 18.903854 72.746170 10,750 181 296 2112
2019-03-25 18:27:08 GMT 18.917200 72.746368 10,350 181 292 2944
2019-03-25 18:26:56 GMT 18.932936 72.746521 9,825 180 291 2752
2019-03-25 18:26:44 GMT 18.948530 72.746422 9,300 178 289 3136
2019-03-25 18:26:32 GMT 18.964325 72.745430 8,700 174 289 3264
2019-03-25 18:26:21 GMT 18.979248 72.743271 8,200 168 289 2624
2019-03-25 18:26:14 GMT 18.988632 72.740868 7,900 161 287 2688
2019-03-25 18:26:10 GMT 18.994431 72.738731 7,700 157 287 2688
2019-03-25 18:26:02 GMT 19.001692 72.735283 7,450 151 286 2880
2019-03-25 18:25:58 GMT 19.007650 72.731590 7,200 146 286 3264
2019-03-25 18:25:52 GMT 19.013947 72.726845 6,900 142 288 4032
2019-03-25 18:25:47 GMT 19.020309 72.721695 6,500 143 291 4544
2019-03-25 18:25:41 GMT 19.025208 72.718063 6,175 148 295 4352
2019-03-25 18:25:35 GMT 19.033859 72.713463 5,750 159 299 3328
2019-03-25 18:25:30 GMT 19.038895 72.711838 5,575 166 299 2944
2019-03-25 18:25:23 GMT 19.049881 72.710510 5,200 182 297 3072
2019-03-25 18:25:20 GMT 19.052628 72.710655 5,100 188 296 2816
2019-03-25 18:25:12 GMT 19.064804 72.713844 4,750 206 288 1920
2019-03-25 18:25:01 GMT 19.084415 72.735283 4,400 232 268 1344
2019-03-25 18:24:49 GMT 19.084415 72.735283 4,200 250 251 1472
2019-03-25 18:24:37 GMT 19.086914 72.748863 3,950 268 229 1024
2019-03-25 18:24:26 GMT 19.087255 72.761200 3,725 269 214 2304
2019-03-25 18:24:18 GMT 19.087418 72.769363 3,425 269 213 2368
2019-03-25 18:24:14 GMT 19.087509 72.773094 3,300 269 212 2240
2019-03-25 18:24:03 GMT 19.087627 72.784821 2,875 270 210 2560
2019-03-25 18:23:52 GMT 19.087738 72.796539 2,425 270 210 2368
2019-03-25 18:23:40 GMT 19.087769 72.808540 1,950 270 208 3008
2019-03-25 18:23:28 GMT 19.087921 72.820618 1,350 269 211 3264

Making use of Plane Finder data

You are free to use the raw flight data, aircraft information and images provided in this report for your own purposes provided the data is correctly attributed to Plane Finder. We ask that you please credit Plane Finder and link to planefinder.net in close proximity to the content.

Optionally one of the following logos (no smaller then 150x24px) can be used and must link to planefinder.net

Embedding the Plane Finder map

You are welcome to embed the Plane Finder playback map on your website to offer visitors a more interactive experience. We suggest using the following HTML code:

<iframe src="//planefinder.net/data/report/SQ423-9V-SWS-7700-squawk-2019-03-25/map" width="800" height="600" seamless="seamless"></iframe>

Where our data comes from

Plane Finder has a global network of data feeds and antenna radars that receive data broadcast directly from aircraft. The primary technologies used are ADS-B and MLAT. We also show feeds from the FAA and a FLARM glider feed.

Click here to find out more about the Plane Finder network.

How we collect our data